<?xml version="1.0" encoding="UTF-8" standalone="no" ?><gpx xmlns="http://www.topografix.com/GPX/1/1" xmlns:gpxx="http://www.garmin.com/xmlschemas/GpxExtensions/v3" xmlns:gpxtrkx="http://www.garmin.com/xmlschemas/TrackStatsExtension/v1" xmlns:wptx1="http://www.garmin.com/xmlschemas/WaypointExtension/v1" xmlns:gpxtpx="http://www.garmin.com/xmlschemas/TrackPointExtension/v1" creator="GPSMAP 64st" version="1.1" xmlns:xsi="http://www.w3.org/2001/XMLSchema-instance" xsi:schemaLocation="http://www.topografix.com/GPX/1/1 http://www.topografix.com/GPX/1/1/gpx.xsd http://www.garmin.com/xmlschemas/GpxExtensions/v3 http://www8.garmin.com/xmlschemas/GpxExtensionsv3.xsd http://www.garmin.com/xmlschemas/TrackStatsExtension/v1 http://www8.garmin.com/xmlschemas/TrackStatsExtension.xsd http://www.garmin.com/xmlschemas/WaypointExtension/v1 http://www8.garmin.com/xmlschemas/WaypointExtensionv1.xsd http://www.garmin.com/xmlschemas/TrackPointExtension/v1 http://www.garmin.com/xmlschemas/TrackPointExtensionv1.xsd"><metadata><link href="http://www.garmin.com"><text>Garmin International</text></link><time>2026-08-30T01:46:35Z</time></metadata><trk><name>2026-08-30 04:46:32</name><extensions><gpxx:TrackExtension><gpxx:DisplayColor>Red</gpxx:DisplayColor></gpxx:TrackExtension><gpxtrkx:TrackStatsExtension><gpxtrkx:Distance>46527</gpxtrkx:Distance><gpxtrkx:TotalElapsedTime>16362</gpxtrkx:TotalElapsedTime><gpxtrkx:MovingTime>12675</gpxtrkx:MovingTime><gpxtrkx:StoppedTime>3680</gpxtrkx:StoppedTime><gpxtrkx:MovingSpeed>4</gpxtrkx:MovingSpeed><gpxtrkx:MaxSpeed>2</gpxtrkx:MaxSpeed><gpxtrkx:MaxElevation>74</gpxtrkx:MaxElevation><gpxtrkx:MinElevation>53</gpxtrkx:MinElevation><gpxtrkx:Ascent>30</gpxtrkx:Ascent><gpxtrkx:Descent>16</gpxtrkx:Descent><gpxtrkx:AvgAscentRate>0</gpxtrkx:AvgAscentRate><gpxtrkx:MaxAscentRate>0</gpxtrkx:MaxAscentRate><gpxtrkx:AvgDescentRate>0</gpxtrkx:AvgDescentRate><gpxtrkx:MaxDescentRate>-0</gpxtrkx:MaxDescentRate></gpxtrkx:TrackStatsExtension></extensions><trkseg><trkpt lat="59.4568234496" lon="30.2858109679"><ele>54.58</ele><time>2026-08-29T21:13:53Z</time></trkpt><trkpt lat="59.4567900058" lon="30.2858092915"><ele>54.24</ele><time>2026-08-29T21:14:13Z</time></trkpt><trkpt lat="59.4567806181" lon="30.2858232055"><ele>54.39</ele><time>2026-08-29T21:14:35Z</time></trkpt><trkpt lat="59.4567903411" lon="30.2858674619"><ele>54.70</ele><time>2026-08-29T21:15:04Z</time></trkpt><trkpt lat="59.4567841385" lon="30.2858765982"><ele>54.78</ele><time>2026-08-29T21:15:31Z</time></trkpt><trkpt lat="59.4568143971" lon="30.2859008219"><ele>54.57</ele><time>2026-08-29T21:16:04Z</time></trkpt><trkpt lat="59.4568080269" lon="30.2859584894"><ele>54.79</ele><time>2026-08-29T21:16:34Z</time></trkpt><trkpt lat="59.4568563905" lon="30.2858889196"><ele>54.63</ele><time>2026-08-29T21:17:06Z</time></trkpt><trkpt lat="59.4568709750" lon="30.2859221119"><ele>54.41</ele><time>2026-08-29T21:17:37Z</time></trkpt><trkpt lat="59.4568464998" lon="30.2859093715"><ele>54.67</ele><time>2026-08-29T21:18:02Z</time></trkpt><trkpt lat="59.4568369444" lon="30.2859478444"><ele>54.96</ele><time>2026-08-29T21:18:39Z</time></trkpt><trkpt lat="59.4568325859" lon="30.2859273925"><ele>55.45</ele><time>2026-08-29T21:19:10Z</time></trkpt><trkpt lat="59.4567627646" lon="30.2859013248"><ele>55.29</ele><time>2026-08-29T21:19:36Z</time></trkpt><trkpt lat="59.4567725714" lon="30.2859932743"><ele>55.44</ele><time>2026-08-29T21:20:07Z</time></trkpt><trkpt lat="59.4567675423" lon="30.2859812882"><ele>55.39</ele><time>2026-08-29T21:20:08Z</time></trkpt><trkpt lat="59.4568022434" lon="30.2858740836"><ele>55.41</ele><time>2026-08-29T21:20:41Z</time></trkpt><trkpt lat="59.4568169117" lon="30.2857795358"><ele>55.73</ele><time>2026-08-29T21:21:07Z</time></trkpt><trkpt lat="59.4568780158" lon="30.2858019993"><ele>55.51</ele><time>2026-08-29T21:21:38Z</time></trkpt><trkpt lat="59.4568875711" lon="30.2858781908"><ele>55.83</ele><time>2026-08-29T21:22:17Z</time></trkpt><trkpt lat="59.4568751659" lon="30.2859002352"><ele>55.96</ele><time>2026-08-29T21:22:40Z</time></trkpt><trkpt lat="59.4568419736" lon="30.2859066892"><ele>56.34</ele><time>2026-08-29T21:23:07Z</time></trkpt><trkpt lat="59.4568821229" lon="30.2858107165"><ele>56.91</ele><time>2026-08-29T21:23:29Z</time></trkpt><trkpt lat="59.4568362739" lon="30.2857165039"><ele>55.88</ele><time>2026-08-29T21:23:53Z</time></trkpt><trkpt lat="59.4568642695" lon="30.2857897617"><ele>56.15</ele><time>2026-08-29T21:24:08Z</time></trkpt><trkpt lat="59.4568952825" lon="30.2857782785"><ele>56.36</ele><time>2026-08-29T21:24:36Z</time></trkpt><trkpt lat="59.4568868168" lon="30.2857144084"><ele>56.30</ele><time>2026-08-29T21:25:10Z</time></trkpt><trkpt lat="59.4568775129" lon="30.2857488580"><ele>56.55</ele><time>2026-08-29T21:25:34Z</time></trkpt><trkpt lat="59.4568793569" lon="30.2858179249"><ele>57.02</ele><time>2026-08-29T21:25:53Z</time></trkpt><trkpt lat="59.4569695462" lon="30.2858319227"><ele>56.53</ele><time>2026-08-29T21:26:13Z</time></trkpt><trkpt lat="59.4570628367" lon="30.2856877539"><ele>56.46</ele><time>2026-08-29T21:26:32Z</time></trkpt><trkpt lat="59.4571264554" lon="30.2856436651"><ele>57.10</ele><time>2026-08-29T21:26:39Z</time></trkpt><trkpt lat="59.4572039880" lon="30.2856125683"><ele>56.90</ele><time>2026-08-29T21:26:55Z</time></trkpt><trkpt lat="59.4572412036" lon="30.2856528014"><ele>56.83</ele><time>2026-08-29T21:27:25Z</time></trkpt><trkpt lat="59.4574462250" lon="30.2855477761"><ele>56.44</ele><time>2026-08-29T21:27:45Z</time></trkpt><trkpt lat="59.4575719535" lon="30.2854075469"><ele>56.22</ele><time>2026-08-29T21:28:01Z</time></trkpt><trkpt lat="59.4577360712" lon="30.2853782102"><ele>56.33</ele><time>2026-08-29T21:28:23Z</time></trkpt><trkpt lat="59.4577934034" lon="30.2854284178"><ele>56.83</ele><time>2026-08-29T21:28:33Z</time></trkpt><trkpt lat="59.4578941539" lon="30.2853320260"><ele>56.40</ele><time>2026-08-29T21:28:46Z</time></trkpt><trkpt lat="59.4579969160" lon="30.2852965705"><ele>56.65</ele><time>2026-08-29T21:29:07Z</time></trkpt><trkpt lat="59.4581050426" lon="30.2852974087"><ele>56.82</ele><time>2026-08-29T21:29:25Z</time></trkpt><trkpt lat="59.4581073057" lon="30.2853927948"><ele>56.48</ele><time>2026-08-29T21:29:46Z</time></trkpt><trkpt lat="59.4581169449" lon="30.2853511367"><ele>56.13</ele><time>2026-08-29T21:30:08Z</time></trkpt><trkpt lat="59.4581378158" lon="30.2853404917"><ele>56.04</ele><time>2026-08-29T21:30:34Z</time></trkpt><trkpt lat="59.4583003409" lon="30.2853269968"><ele>56.16</ele><time>2026-08-29T21:30:55Z</time></trkpt><trkpt lat="59.4584234711" lon="30.2852705028"><ele>55.91</ele><time>2026-08-29T21:31:14Z</time></trkpt><trkpt lat="59.4585393928" lon="30.2853133343"><ele>55.98</ele><time>2026-08-29T21:31:30Z</time></trkpt><trkpt lat="59.4585614372" lon="30.2853157651"><ele>56.08</ele><time>2026-08-29T21:31:32Z</time></trkpt><trkpt lat="59.4586865790" lon="30.2853352111"><ele>56.03</ele><time>2026-08-29T21:31:52Z</time></trkpt><trkpt lat="59.4587271474" lon="30.2853111550"><ele>56.39</ele><time>2026-08-29T21:32:09Z</time></trkpt><trkpt lat="59.4586779457" lon="30.2853798866"><ele>56.10</ele><time>2026-08-29T21:32:26Z</time></trkpt><trkpt lat="59.4587912690" lon="30.2854646277"><ele>56.34</ele><time>2026-08-29T21:32:44Z</time></trkpt><trkpt lat="59.4588832185" lon="30.2854784578"><ele>55.71</ele><time>2026-08-29T21:33:00Z</time></trkpt><trkpt lat="59.4590099528" lon="30.2853845805"><ele>55.95</ele><time>2026-08-29T21:33:19Z</time></trkpt><trkpt lat="59.4590749964" lon="30.2853265777"><ele>54.71</ele><time>2026-08-29T21:33:27Z</time></trkpt><trkpt lat="59.4591884874" lon="30.2853459399"><ele>55.89</ele><time>2026-08-29T21:33:40Z</time></trkpt><trkpt lat="59.4592395332" lon="30.2853264939"><ele>56.11</ele><time>2026-08-29T21:33:45Z</time></trkpt><trkpt lat="59.4593150541" lon="30.2853073832"><ele>56.02</ele><time>2026-08-29T21:34:01Z</time></trkpt><trkpt lat="59.4593916647" lon="30.2854000032"><ele>56.18</ele><time>2026-08-29T21:34:17Z</time></trkpt><trkpt lat="59.4595013838" lon="30.2853917051"><ele>55.61</ele><time>2026-08-29T21:34:35Z</time></trkpt><trkpt lat="59.4595556147" lon="30.2852886915"><ele>55.73</ele><time>2026-08-29T21:34:43Z</time></trkpt><trkpt lat="59.4595525973" lon="30.2852514759"><ele>56.34</ele><time>2026-08-29T21:35:01Z</time></trkpt><trkpt lat="59.4595360849" lon="30.2852014359"><ele>55.79</ele><time>2026-08-29T21:35:21Z</time></trkpt><trkpt lat="59.4596028049" lon="30.2851381525"><ele>55.84</ele><time>2026-08-29T21:35:55Z</time></trkpt><trkpt lat="59.4596226700" lon="30.2851555031"><ele>56.04</ele><time>2026-08-29T21:36:04Z</time></trkpt><trkpt lat="59.4596428704" lon="30.2851584367"><ele>56.05</ele><time>2026-08-29T21:36:06Z</time></trkpt><trkpt lat="59.4597182237" lon="30.2852046210"><ele>55.92</ele><time>2026-08-29T21:36:18Z</time></trkpt><trkpt lat="59.4597830996" lon="30.2852580138"><ele>55.52</ele><time>2026-08-29T21:36:34Z</time></trkpt><trkpt lat="59.4597790763" lon="30.2853427548"><ele>55.56</ele><time>2026-08-29T21:36:52Z</time></trkpt><trkpt lat="59.4597997796" lon="30.2853433415"><ele>55.75</ele><time>2026-08-29T21:37:00Z</time></trkpt><trkpt lat="59.4598074071" lon="30.2852276713"><ele>55.56</ele><time>2026-08-29T21:37:16Z</time></trkpt><trkpt lat="59.4598801620" lon="30.2850749530"><ele>56.37</ele><time>2026-08-29T21:37:35Z</time></trkpt><trkpt lat="59.4600478001" lon="30.2850368153"><ele>56.92</ele><time>2026-08-29T21:37:57Z</time></trkpt><trkpt lat="59.4602119178" lon="30.2850174531"><ele>57.14</ele><time>2026-08-29T21:38:19Z</time></trkpt><trkpt lat="59.4603083935" lon="30.2850368153"><ele>56.91</ele><time>2026-08-29T21:38:32Z</time></trkpt><trkpt lat="59.4604922086" lon="30.2849984262"><ele>57.24</ele><time>2026-08-29T21:38:53Z</time></trkpt><trkpt lat="59.4606928714" lon="30.2849462070"><ele>57.00</ele><time>2026-08-29T21:39:13Z</time></trkpt><trkpt lat="59.4608116429" lon="30.2848892938"><ele>56.77</ele><time>2026-08-29T21:39:32Z</time></trkpt><trkpt lat="59.4609337673" lon="30.2848332189"><ele>57.18</ele><time>2026-08-29T21:39:51Z</time></trkpt><trkpt lat="59.4610344339" lon="30.2849114221"><ele>56.99</ele><time>2026-08-29T21:40:11Z</time></trkpt><trkpt lat="59.4610517006" lon="30.2849385794"><ele>56.91</ele><time>2026-08-29T21:40:36Z</time></trkpt><trkpt lat="59.4610212743" lon="30.2849373221"><ele>56.98</ele><time>2026-08-29T21:40:57Z</time></trkpt><trkpt lat="59.4611450750" lon="30.2848548442"><ele>57.29</ele><time>2026-08-29T21:41:19Z</time></trkpt><trkpt lat="59.4613733143" lon="30.2848228253"><ele>57.18</ele><time>2026-08-29T21:41:43Z</time></trkpt><trkpt lat="59.4615819398" lon="30.2847992722"><ele>57.45</ele><time>2026-08-29T21:42:04Z</time></trkpt><trkpt lat="59.4617799204" lon="30.2847877052"><ele>57.39</ele><time>2026-08-29T21:42:26Z</time></trkpt><trkpt lat="59.4619824272" lon="30.2847674210"><ele>57.53</ele><time>2026-08-29T21:42:48Z</time></trkpt><trkpt lat="59.4622362312" lon="30.2847416047"><ele>57.23</ele><time>2026-08-29T21:43:12Z</time></trkpt><trkpt lat="59.4624360558" lon="30.2846885473"><ele>57.66</ele><time>2026-08-29T21:43:33Z</time></trkpt><trkpt lat="59.4626229722" lon="30.2846663352"><ele>57.03</ele><time>2026-08-29T21:43:54Z</time></trkpt><trkpt lat="59.4628129900" lon="30.2846486494"><ele>57.11</ele><time>2026-08-29T21:44:11Z</time></trkpt><trkpt lat="59.4630437437" lon="30.2846081648"><ele>56.76</ele><time>2026-08-29T21:44:34Z</time></trkpt><trkpt lat="59.4630976394" lon="30.2845693566"><ele>56.70</ele><time>2026-08-29T21:44:47Z</time></trkpt><trkpt lat="59.4631934445" lon="30.2845746372"><ele>56.75</ele><time>2026-08-29T21:45:12Z</time></trkpt><trkpt lat="59.4631930254" lon="30.2845385112"><ele>57.08</ele><time>2026-08-29T21:45:39Z</time></trkpt><trkpt lat="59.4632890821" lon="30.2845778223"><ele>57.22</ele><time>2026-08-29T21:46:01Z</time></trkpt><trkpt lat="59.4635081012" lon="30.2845349070"><ele>57.40</ele><time>2026-08-29T21:46:22Z</time></trkpt><trkpt lat="59.4636315666" lon="30.2845800016"><ele>56.87</ele><time>2026-08-29T21:46:38Z</time></trkpt><trkpt lat="59.4637218397" lon="30.2845552750"><ele>57.62</ele><time>2026-08-29T21:46:56Z</time></trkpt><trkpt lat="59.4639147911" lon="30.2844976075"><ele>57.76</ele><time>2026-08-29T21:47:16Z</time></trkpt><trkpt lat="59.4640967622" lon="30.2844560333"><ele>57.80</ele><time>2026-08-29T21:47:37Z</time></trkpt><trkpt lat="59.4641335588" lon="30.2844599728"><ele>57.61</ele><time>2026-08-29T21:47:41Z</time></trkpt><trkpt lat="59.4643720239" lon="30.2843899000"><ele>57.61</ele><time>2026-08-29T21:48:03Z</time></trkpt><trkpt lat="59.4645197131" lon="30.2843875531"><ele>57.70</ele><time>2026-08-29T21:48:24Z</time></trkpt><trkpt lat="59.4645581022" lon="30.2843914926"><ele>57.69</ele><time>2026-08-29T21:48:30Z</time></trkpt><trkpt lat="59.4646529853" lon="30.2843692806"><ele>58.47</ele><time>2026-08-29T21:49:04Z</time></trkpt><trkpt lat="59.4646389037" lon="30.2843993716"><ele>58.07</ele><time>2026-08-29T21:49:33Z</time></trkpt><trkpt lat="59.4647904485" lon="30.2843554504"><ele>58.48</ele><time>2026-08-29T21:49:48Z</time></trkpt><trkpt lat="59.4649503753" lon="30.2843597252"><ele>58.59</ele><time>2026-08-29T21:50:03Z</time></trkpt><trkpt lat="59.4651440810" lon="30.2842575498"><ele>58.48</ele><time>2026-08-29T21:50:24Z</time></trkpt><trkpt lat="59.4653178379" lon="30.2841636725"><ele>58.50</ele><time>2026-08-29T21:50:43Z</time></trkpt><trkpt lat="59.4654823747" lon="30.2841906622"><ele>58.97</ele><time>2026-08-29T21:51:02Z</time></trkpt><trkpt lat="59.4656108692" lon="30.2842284646"><ele>58.55</ele><time>2026-08-29T21:51:26Z</time></trkpt><trkpt lat="59.4657975342" lon="30.2841733117"><ele>58.69</ele><time>2026-08-29T21:51:45Z</time></trkpt><trkpt lat="59.4658440538" lon="30.2841522731"><ele>59.18</ele><time>2026-08-29T21:52:04Z</time></trkpt><trkpt lat="59.4659178145" lon="30.2841531113"><ele>58.72</ele><time>2026-08-29T21:52:42Z</time></trkpt><trkpt lat="59.4659558684" lon="30.2841674443"><ele>58.95</ele><time>2026-08-29T21:53:07Z</time></trkpt><trkpt lat="59.4661157951" lon="30.2841407061"><ele>59.01</ele><time>2026-08-29T21:53:26Z</time></trkpt><trkpt lat="59.4663063157" lon="30.2840907499"><ele>59.20</ele><time>2026-08-29T21:53:46Z</time></trkpt><trkpt lat="59.4665078167" lon="30.2840104513"><ele>59.16</ele><time>2026-08-29T21:54:06Z</time></trkpt><trkpt lat="59.4667749479" lon="30.2840248682"><ele>59.48</ele><time>2026-08-29T21:54:27Z</time></trkpt><trkpt lat="59.4668803923" lon="30.2840450685"><ele>59.39</ele><time>2026-08-29T21:54:44Z</time></trkpt><trkpt lat="59.4669117406" lon="30.2840412129"><ele>58.92</ele><time>2026-08-29T21:55:06Z</time></trkpt><trkpt lat="59.4669185299" lon="30.2840484213"><ele>58.92</ele><time>2026-08-29T21:55:14Z</time></trkpt><trkpt lat="59.4668690767" lon="30.2839951124"><ele>59.07</ele><time>2026-08-29T21:55:44Z</time></trkpt><trkpt lat="59.4669171888" lon="30.2840185817"><ele>58.97</ele><time>2026-08-29T21:56:06Z</time></trkpt><trkpt lat="59.4669065438" lon="30.2840133850"><ele>59.62</ele><time>2026-08-29T21:56:37Z</time></trkpt><trkpt lat="59.4668979105" lon="30.2839975432"><ele>59.30</ele><time>2026-08-29T21:56:59Z</time></trkpt><trkpt lat="59.4669302646" lon="30.2839880716"><ele>59.40</ele><time>2026-08-29T21:57:28Z</time></trkpt><trkpt lat="59.4669259898" lon="30.2841216791"><ele>59.94</ele><time>2026-08-29T21:57:56Z</time></trkpt><trkpt lat="59.4669305161" lon="30.2841578051"><ele>60.08</ele><time>2026-08-29T21:58:22Z</time></trkpt><trkpt lat="59.4669407420" lon="30.2844147105"><ele>60.72</ele><time>2026-08-29T21:58:40Z</time></trkpt><trkpt lat="59.4669435918" lon="30.2847183868"><ele>60.97</ele><time>2026-08-29T21:58:58Z</time></trkpt><trkpt lat="59.4669506326" lon="30.2847568598"><ele>60.86</ele><time>2026-08-29T21:59:00Z</time></trkpt><trkpt lat="59.4669800531" lon="30.2850445267"><ele>60.60</ele><time>2026-08-29T21:59:16Z</time></trkpt><trkpt lat="59.4669945538" lon="30.2854227182"><ele>60.96</ele><time>2026-08-29T21:59:36Z</time></trkpt><trkpt lat="59.4669678994" lon="30.2858002391"><ele>60.88</ele><time>2026-08-29T21:59:54Z</time></trkpt><trkpt lat="59.4669720903" lon="30.2861174103"><ele>61.07</ele><time>2026-08-29T22:00:10Z</time></trkpt><trkpt lat="59.4669699110" lon="30.2865233459"><ele>61.16</ele><time>2026-08-29T22:00:30Z</time></trkpt><trkpt lat="59.4670118205" lon="30.2868583705"><ele>61.15</ele><time>2026-08-29T22:00:50Z</time></trkpt><trkpt lat="59.4670271594" lon="30.2866725437"><ele>61.31</ele><time>2026-08-29T22:01:12Z</time></trkpt><trkpt lat="59.4670225494" lon="30.2866457216"><ele>61.29</ele><time>2026-08-29T22:01:16Z</time></trkpt><trkpt lat="59.4670026004" lon="30.2865526825"><ele>61.33</ele><time>2026-08-29T22:01:36Z</time></trkpt><trkpt lat="59.4669870101" lon="30.2865602262"><ele>61.05</ele><time>2026-08-29T22:01:57Z</time></trkpt><trkpt lat="59.4669637922" lon="30.2865893953"><ele>61.45</ele><time>2026-08-29T22:02:22Z</time></trkpt><trkpt lat="59.4669569191" lon="30.2865893114"><ele>61.35</ele><time>2026-08-29T22:03:04Z</time></trkpt><trkpt lat="59.4669596851" lon="30.2865950111"><ele>61.67</ele><time>2026-08-29T22:03:41Z</time></trkpt><trkpt lat="59.4669228047" lon="30.2866059076"><ele>61.27</ele><time>2026-08-29T22:04:19Z</time></trkpt><trkpt lat="59.4669083040" lon="30.2865855396"><ele>60.79</ele><time>2026-08-29T22:04:38Z</time></trkpt><trkpt lat="59.4668972399" lon="30.2865981124"><ele>60.69</ele><time>2026-08-29T22:05:06Z</time></trkpt><trkpt lat="59.4669009279" lon="30.2866020519"><ele>60.82</ele><time>2026-08-29T22:05:26Z</time></trkpt><trkpt lat="59.4668649696" lon="30.2866069134"><ele>60.57</ele><time>2026-08-29T22:05:52Z</time></trkpt><trkpt lat="59.4668195397" lon="30.2866121940"><ele>60.09</ele><time>2026-08-29T22:06:10Z</time></trkpt><trkpt lat="59.4668081403" lon="30.2865029778"><ele>60.84</ele><time>2026-08-29T22:06:28Z</time></trkpt><trkpt lat="59.4667074736" lon="30.2865054086"><ele>60.44</ele><time>2026-08-29T22:06:48Z</time></trkpt><trkpt lat="59.4666992594" lon="30.2865111921"><ele>60.47</ele><time>2026-08-29T22:06:51Z</time></trkpt><trkpt lat="59.4665649813" lon="30.2865142934"><ele>60.56</ele><time>2026-08-29T22:07:16Z</time></trkpt><trkpt lat="59.4664736185" lon="30.2865133714"><ele>60.32</ele><time>2026-08-29T22:07:37Z</time></trkpt><trkpt lat="59.4663866982" lon="30.2865291294"><ele>60.21</ele><time>2026-08-29T22:07:54Z</time></trkpt><trkpt lat="59.4663164578" lon="30.2865667641"><ele>60.35</ele><time>2026-08-29T22:08:15Z</time></trkpt><trkpt lat="59.4662254304" lon="30.2866137866"><ele>60.17</ele><time>2026-08-29T22:08:34Z</time></trkpt><trkpt lat="59.4661349896" lon="30.2867034730"><ele>59.65</ele><time>2026-08-29T22:08:54Z</time></trkpt><trkpt lat="59.4661144540" lon="30.2866926603"><ele>59.90</ele><time>2026-08-29T22:08:59Z</time></trkpt><trkpt lat="59.4660793338" lon="30.2866877150"><ele>59.61</ele><time>2026-08-29T22:09:07Z</time></trkpt><trkpt lat="59.4659748115" lon="30.2866774891"><ele>59.35</ele><time>2026-08-29T22:09:28Z</time></trkpt><trkpt lat="59.4658693671" lon="30.2866218332"><ele>59.48</ele><time>2026-08-29T22:09:46Z</time></trkpt><trkpt lat="59.4658035692" lon="30.2866292093"><ele>59.39</ele><time>2026-08-29T22:10:03Z</time></trkpt><trkpt lat="59.4657729752" lon="30.2866659220"><ele>59.07</ele><time>2026-08-29T22:10:21Z</time></trkpt><trkpt lat="59.4657143857" lon="30.2866808418"><ele>58.79</ele><time>2026-08-29T22:10:42Z</time></trkpt><trkpt lat="59.4656614121" lon="30.2866204083"><ele>58.97</ele><time>2026-08-29T22:11:03Z</time></trkpt><trkpt lat="59.4655713905" lon="30.2867411077"><ele>59.04</ele><time>2026-08-29T22:11:22Z</time></trkpt><trkpt lat="59.4655365217" lon="30.2867783234"><ele>58.74</ele><time>2026-08-29T22:11:54Z</time></trkpt><trkpt lat="59.4654988870" lon="30.2867916506"><ele>58.61</ele><time>2026-08-29T22:12:16Z</time></trkpt><trkpt lat="59.4654739928" lon="30.2868444566"><ele>58.34</ele><time>2026-08-29T22:12:43Z</time></trkpt><trkpt lat="59.4654161576" lon="30.2868209034"><ele>58.32</ele><time>2026-08-29T22:13:03Z</time></trkpt><trkpt lat="59.4654005673" lon="30.2867932431"><ele>58.80</ele><time>2026-08-29T22:13:27Z</time></trkpt><trkpt lat="59.4653511979" lon="30.2868323028"><ele>58.37</ele><time>2026-08-29T22:13:43Z</time></trkpt><trkpt lat="59.4652459212" lon="30.2867980208"><ele>58.17</ele><time>2026-08-29T22:14:01Z</time></trkpt><trkpt lat="59.4651615154" lon="30.2867618110"><ele>57.84</ele><time>2026-08-29T22:14:19Z</time></trkpt><trkpt lat="59.4650821388" lon="30.2867270261"><ele>58.15</ele><time>2026-08-29T22:14:36Z</time></trkpt><trkpt lat="59.4650453422" lon="30.2867611405"><ele>58.35</ele><time>2026-08-29T22:15:07Z</time></trkpt><trkpt lat="59.4650184363" lon="30.2868121024"><ele>57.98</ele><time>2026-08-29T22:15:25Z</time></trkpt><trkpt lat="59.4649060350" lon="30.2868426125"><ele>57.84</ele><time>2026-08-29T22:15:44Z</time></trkpt><trkpt lat="59.4648166001" lon="30.2868395112"><ele>58.02</ele><time>2026-08-29T22:16:03Z</time></trkpt><trkpt lat="59.4647883531" lon="30.2868250106"><ele>57.99</ele><time>2026-08-29T22:16:11Z</time></trkpt><trkpt lat="59.4647021033" lon="30.2868655790"><ele>57.66</ele><time>2026-08-29T22:16:28Z</time></trkpt><trkpt lat="59.4646056276" lon="30.2869123500"><ele>57.77</ele><time>2026-08-29T22:16:44Z</time></trkpt><trkpt lat="59.4645263348" lon="30.2869080752"><ele>58.36</ele><time>2026-08-29T22:17:01Z</time></trkpt><trkpt lat="59.4644465391" lon="30.2869874518"><ele>57.73</ele><time>2026-08-29T22:17:19Z</time></trkpt><trkpt lat="59.4643359818" lon="30.2870425209"><ele>57.67</ele><time>2026-08-29T22:17:36Z</time></trkpt><trkpt lat="59.4642930664" lon="30.2870092448"><ele>58.06</ele><time>2026-08-29T22:17:51Z</time></trkpt><trkpt lat="59.4642533362" lon="30.2870489750"><ele>57.87</ele><time>2026-08-29T22:18:12Z</time></trkpt><trkpt lat="59.4642304536" lon="30.2870649006"><ele>57.80</ele><time>2026-08-29T22:18:50Z</time></trkpt><trkpt lat="59.4642259274" lon="30.2870579436"><ele>57.82</ele><time>2026-08-29T22:19:19Z</time></trkpt><trkpt lat="59.4641855266" lon="30.2870409284"><ele>57.98</ele><time>2026-08-29T22:19:40Z</time></trkpt><trkpt lat="59.4641158730" lon="30.2870421857"><ele>58.25</ele><time>2026-08-29T22:19:57Z</time></trkpt><trkpt lat="59.4640590437" lon="30.2870651521"><ele>57.88</ele><time>2026-08-29T22:20:10Z</time></trkpt><trkpt lat="59.4639657531" lon="30.2870980091"><ele>57.58</ele><time>2026-08-29T22:20:27Z</time></trkpt><trkpt lat="59.4638936687" lon="30.2870820835"><ele>58.01</ele><time>2026-08-29T22:20:43Z</time></trkpt><trkpt lat="59.4638233446" lon="30.2870680019"><ele>57.77</ele><time>2026-08-29T22:20:56Z</time></trkpt><trkpt lat="59.4637417048" lon="30.2870136034"><ele>57.87</ele><time>2026-08-29T22:21:12Z</time></trkpt><trkpt lat="59.4636942632" lon="30.2869824227"><ele>57.87</ele><time>2026-08-29T22:21:29Z</time></trkpt><trkpt lat="59.4637014717" lon="30.2870117594"><ele>57.96</ele><time>2026-08-29T22:21:55Z</time></trkpt><trkpt lat="59.4636996277" lon="30.2870113403"><ele>58.11</ele><time>2026-08-29T22:22:20Z</time></trkpt><trkpt lat="59.4636814389" lon="30.2870155312"><ele>58.05</ele><time>2026-08-29T22:22:45Z</time></trkpt><trkpt lat="59.4636075944" lon="30.2870578598"><ele>58.21</ele><time>2026-08-29T22:23:03Z</time></trkpt><trkpt lat="59.4635763299" lon="30.2870639786"><ele>58.26</ele><time>2026-08-29T22:23:16Z</time></trkpt><trkpt lat="59.4635177404" lon="30.2870777249"><ele>58.02</ele><time>2026-08-29T22:23:30Z</time></trkpt><trkpt lat="59.4634620845" lon="30.2870922256"><ele>58.13</ele><time>2026-08-29T22:23:46Z</time></trkpt><trkpt lat="59.4634235278" lon="30.2870527469"><ele>58.20</ele><time>2026-08-29T22:24:04Z</time></trkpt><trkpt lat="59.4633647706" lon="30.2870778926"><ele>58.43</ele><time>2026-08-29T22:24:24Z</time></trkpt><trkpt lat="59.4632910099" lon="30.2870696783"><ele>58.43</ele><time>2026-08-29T22:24:42Z</time></trkpt><trkpt lat="59.4632263854" lon="30.2870094124"><ele>58.02</ele><time>2026-08-29T22:25:00Z</time></trkpt><trkpt lat="59.4631738309" lon="30.2870048024"><ele>58.43</ele><time>2026-08-29T22:25:18Z</time></trkpt><trkpt lat="59.4631134812" lon="30.2870000247"><ele>58.28</ele><time>2026-08-29T22:25:33Z</time></trkpt><trkpt lat="59.4630873296" lon="30.2869979292"><ele>57.91</ele><time>2026-08-29T22:25:38Z</time></trkpt><trkpt lat="59.4630553946" lon="30.2869364060"><ele>58.43</ele><time>2026-08-29T22:25:53Z</time></trkpt><trkpt lat="59.4630029239" lon="30.2869310416"><ele>57.94</ele><time>2026-08-29T22:26:11Z</time></trkpt><trkpt lat="59.4629626069" lon="30.2869893797"><ele>58.01</ele><time>2026-08-29T22:26:23Z</time></trkpt><trkpt lat="59.4628844876" lon="30.2870444488"><ele>57.86</ele><time>2026-08-29T22:26:41Z</time></trkpt><trkpt lat="59.4628283288" lon="30.2870682534"><ele>57.66</ele><time>2026-08-29T22:26:54Z</time></trkpt><trkpt lat="59.4627620280" lon="30.2869932353"><ele>57.88</ele><time>2026-08-29T22:27:19Z</time></trkpt><trkpt lat="59.4627171010" lon="30.2870758809"><ele>57.98</ele><time>2026-08-29T22:27:38Z</time></trkpt><trkpt lat="59.4626786280" lon="30.2871104982"><ele>57.86</ele><time>2026-08-29T22:27:57Z</time></trkpt><trkpt lat="59.4628041051" lon="30.2871248312"><ele>57.19</ele><time>2026-08-29T22:28:48Z</time></trkpt><trkpt lat="59.4628100563" lon="30.2871301956"><ele>57.10</ele><time>2026-08-29T22:28:49Z</time></trkpt><trkpt lat="59.4628539775" lon="30.2872238215"><ele>57.71</ele><time>2026-08-29T22:31:15Z</time></trkpt><trkpt lat="59.4628169294" lon="30.2872394118"><ele>58.41</ele><time>2026-08-29T22:31:20Z</time></trkpt><trkpt lat="59.4626227207" lon="30.2871252503"><ele>58.63</ele><time>2026-08-29T22:31:53Z</time></trkpt><trkpt lat="59.4626222178" lon="30.2872179542"><ele>58.67</ele><time>2026-08-29T22:32:22Z</time></trkpt><trkpt lat="59.4625891931" lon="30.2872474585"><ele>59.19</ele><time>2026-08-29T22:32:43Z</time></trkpt><trkpt lat="59.4625393208" lon="30.2872824110"><ele>59.71</ele><time>2026-08-29T22:33:04Z</time></trkpt><trkpt lat="59.4624754507" lon="30.2872659825"><ele>59.70</ele><time>2026-08-29T22:33:35Z</time></trkpt><trkpt lat="59.4624349661" lon="30.2872287668"><ele>59.67</ele><time>2026-08-29T22:33:54Z</time></trkpt><trkpt lat="59.4623961579" lon="30.2872874402"><ele>60.35</ele><time>2026-08-29T22:34:12Z</time></trkpt><trkpt lat="59.4623627141" lon="30.2872951515"><ele>60.46</ele><time>2026-08-29T22:34:40Z</time></trkpt><trkpt lat="59.4623499736" lon="30.2872840036"><ele>60.46</ele><time>2026-08-29T22:35:06Z</time></trkpt><trkpt lat="59.4622584432" lon="30.2873539086"><ele>59.81</ele><time>2026-08-29T22:35:33Z</time></trkpt><trkpt lat="59.4622071460" lon="30.2873406652"><ele>60.57</ele><time>2026-08-29T22:35:51Z</time></trkpt><trkpt lat="59.4621291943" lon="30.2873412520"><ele>60.19</ele><time>2026-08-29T22:36:11Z</time></trkpt><trkpt lat="59.4620693475" lon="30.2873995900"><ele>60.44</ele><time>2026-08-29T22:36:30Z</time></trkpt><trkpt lat="59.4620202295" lon="30.2875348739"><ele>60.48</ele><time>2026-08-29T22:36:48Z</time></trkpt><trkpt lat="59.4619447086" lon="30.2874707524"><ele>60.71</ele><time>2026-08-29T22:37:03Z</time></trkpt><trkpt lat="59.4618599676" lon="30.2873814851"><ele>60.78</ele><time>2026-08-29T22:37:22Z</time></trkpt><trkpt lat="59.4617542718" lon="30.2873983327"><ele>60.39</ele><time>2026-08-29T22:37:41Z</time></trkpt><trkpt lat="59.4616482407" lon="30.2873614524"><ele>60.13</ele><time>2026-08-29T22:38:03Z</time></trkpt><trkpt lat="59.4616408646" lon="30.2873649728"><ele>60.19</ele><time>2026-08-29T22:38:06Z</time></trkpt><trkpt lat="59.4615183212" lon="30.2873819880"><ele>60.15</ele><time>2026-08-29T22:38:26Z</time></trkpt><trkpt lat="59.4614416268" lon="30.2873966563"><ele>60.93</ele><time>2026-08-29T22:38:49Z</time></trkpt><trkpt lat="59.4614410400" lon="30.2874206286"><ele>60.04</ele><time>2026-08-29T22:39:13Z</time></trkpt><trkpt lat="59.4614479132" lon="30.2874088101"><ele>60.85</ele><time>2026-08-29T22:39:44Z</time></trkpt><trkpt lat="59.4614255335" lon="30.2874570061"><ele>60.51</ele><time>2026-08-29T22:40:09Z</time></trkpt><trkpt lat="59.4614054170" lon="30.2874279208"><ele>61.31</ele><time>2026-08-29T22:40:38Z</time></trkpt><trkpt lat="59.4613603223" lon="30.2874190360"><ele>61.23</ele><time>2026-08-29T22:41:00Z</time></trkpt><trkpt lat="59.4612955302" lon="30.2874046192"><ele>61.36</ele><time>2026-08-29T22:41:21Z</time></trkpt><trkpt lat="59.4611893315" lon="30.2874338720"><ele>61.32</ele><time>2026-08-29T22:41:42Z</time></trkpt><trkpt lat="59.4611167442" lon="30.2873929683"><ele>61.16</ele><time>2026-08-29T22:42:03Z</time></trkpt><trkpt lat="59.4610366132" lon="30.2874223888"><ele>61.55</ele><time>2026-08-29T22:42:21Z</time></trkpt><trkpt lat="59.4609659538" lon="30.2874311060"><ele>61.01</ele><time>2026-08-29T22:42:40Z</time></trkpt><trkpt lat="59.4609281514" lon="30.2874472830"><ele>61.54</ele><time>2026-08-29T22:42:55Z</time></trkpt><trkpt lat="59.4608904328" lon="30.2874437626"><ele>60.16</ele><time>2026-08-29T22:43:01Z</time></trkpt><trkpt lat="59.4608790334" lon="30.2874630410"><ele>61.45</ele><time>2026-08-29T22:43:06Z</time></trkpt><trkpt lat="59.4608723279" lon="30.2874638792"><ele>61.28</ele><time>2026-08-29T22:43:08Z</time></trkpt><trkpt lat="59.4607476052" lon="30.2874960657"><ele>61.68</ele><time>2026-08-29T22:43:28Z</time></trkpt><trkpt lat="59.4606779516" lon="30.2874655556"><ele>61.87</ele><time>2026-08-29T22:43:47Z</time></trkpt><trkpt lat="59.4605800509" lon="30.2875090577"><ele>61.89</ele><time>2026-08-29T22:44:12Z</time></trkpt><trkpt lat="59.4605580904" lon="30.2875298448"><ele>61.67</ele><time>2026-08-29T22:44:18Z</time></trkpt><trkpt lat="59.4604856707" lon="30.2875945531"><ele>61.46</ele><time>2026-08-29T22:44:39Z</time></trkpt><trkpt lat="59.4604349602" lon="30.2876286674"><ele>61.59</ele><time>2026-08-29T22:44:45Z</time></trkpt><trkpt lat="59.4603134226" lon="30.2876274940"><ele>61.47</ele><time>2026-08-29T22:45:06Z</time></trkpt><trkpt lat="59.4602227304" lon="30.2876857482"><ele>61.72</ele><time>2026-08-29T22:45:25Z</time></trkpt><trkpt lat="59.4601195492" lon="30.2876939625"><ele>61.77</ele><time>2026-08-29T22:45:46Z</time></trkpt><trkpt lat="59.4600635581" lon="30.2877127379"><ele>61.52</ele><time>2026-08-29T22:46:05Z</time></trkpt><trkpt lat="59.4599887077" lon="30.2877885941"><ele>61.77</ele><time>2026-08-29T22:46:34Z</time></trkpt><trkpt lat="59.4600172900" lon="30.2877681423"><ele>62.11</ele><time>2026-08-29T22:47:06Z</time></trkpt><trkpt lat="59.4599700999" lon="30.2877346147"><ele>61.39</ele><time>2026-08-29T22:47:27Z</time></trkpt><trkpt lat="59.4599624723" lon="30.2876598481"><ele>61.77</ele><time>2026-08-29T22:47:46Z</time></trkpt><trkpt lat="59.4599590357" lon="30.2876116522"><ele>61.72</ele><time>2026-08-29T22:47:53Z</time></trkpt><trkpt lat="59.4599097501" lon="30.2875181939"><ele>62.36</ele><time>2026-08-29T22:48:14Z</time></trkpt><trkpt lat="59.4599344768" lon="30.2873492986"><ele>62.42</ele><time>2026-08-29T22:48:30Z</time></trkpt><trkpt lat="59.4598875381" lon="30.2872339636"><ele>62.43</ele><time>2026-08-29T22:48:51Z</time></trkpt><trkpt lat="59.4598885439" lon="30.2872700896"><ele>63.13</ele><time>2026-08-29T22:49:11Z</time></trkpt><trkpt lat="59.4598830957" lon="30.2875231393"><ele>63.50</ele><time>2026-08-29T22:49:30Z</time></trkpt><trkpt lat="59.4598887954" lon="30.2875643782"><ele>63.21</ele><time>2026-08-29T22:49:34Z</time></trkpt><trkpt lat="59.4598934893" lon="30.2877554856"><ele>63.08</ele><time>2026-08-29T22:49:53Z</time></trkpt><trkpt lat="59.4599125162" lon="30.2877930366"><ele>62.90</ele><time>2026-08-29T22:49:58Z</time></trkpt><trkpt lat="59.4598649908" lon="30.2879209444"><ele>61.78</ele><time>2026-08-29T22:50:20Z</time></trkpt><trkpt lat="59.4598388392" lon="30.2878649533"><ele>62.05</ele><time>2026-08-29T22:50:40Z</time></trkpt><trkpt lat="59.4598349836" lon="30.2878566552"><ele>62.05</ele><time>2026-08-29T22:50:41Z</time></trkpt><trkpt lat="59.4597820938" lon="30.2877610177"><ele>62.20</ele><time>2026-08-29T22:51:00Z</time></trkpt><trkpt lat="59.4596745539" lon="30.2877242211"><ele>62.32</ele><time>2026-08-29T22:51:18Z</time></trkpt><trkpt lat="59.4595424552" lon="30.2877595928"><ele>62.05</ele><time>2026-08-29T22:51:37Z</time></trkpt><trkpt lat="59.4594649225" lon="30.2877217904"><ele>62.14</ele><time>2026-08-29T22:51:57Z</time></trkpt><trkpt lat="59.4593539461" lon="30.2876894362"><ele>61.58</ele><time>2026-08-29T22:52:17Z</time></trkpt><trkpt lat="59.4592371024" lon="30.2877450082"><ele>61.74</ele><time>2026-08-29T22:52:37Z</time></trkpt><trkpt lat="59.4592306484" lon="30.2877479419"><ele>62.21</ele><time>2026-08-29T22:52:38Z</time></trkpt><trkpt lat="59.4591825362" lon="30.2877386380"><ele>62.08</ele><time>2026-08-29T22:52:44Z</time></trkpt><trkpt lat="59.4591614138" lon="30.2877370454"><ele>61.80</ele><time>2026-08-29T22:52:47Z</time></trkpt><trkpt lat="59.4590876531" lon="30.2877434995"><ele>62.05</ele><time>2026-08-29T22:53:06Z</time></trkpt><trkpt lat="59.4589995593" lon="30.2877951320"><ele>61.78</ele><time>2026-08-29T22:53:27Z</time></trkpt><trkpt lat="59.4589233678" lon="30.2878591698"><ele>61.33</ele><time>2026-08-29T22:53:44Z</time></trkpt><trkpt lat="59.4588781893" lon="30.2878844831"><ele>61.32</ele><time>2026-08-29T22:53:56Z</time></trkpt><trkpt lat="59.4587522093" lon="30.2879242972"><ele>61.44</ele><time>2026-08-29T22:54:17Z</time></trkpt><trkpt lat="59.4586693123" lon="30.2879387140"><ele>61.62</ele><time>2026-08-29T22:54:37Z</time></trkpt><trkpt lat="59.4585144147" lon="30.2880138159"><ele>61.88</ele><time>2026-08-29T22:54:59Z</time></trkpt><trkpt lat="59.4584119879" lon="30.2880967967"><ele>61.45</ele><time>2026-08-29T22:55:18Z</time></trkpt><trkpt lat="59.4583988283" lon="30.2881016582"><ele>61.65</ele><time>2026-08-29T22:55:38Z</time></trkpt><trkpt lat="59.4583756104" lon="30.2881325036"><ele>61.30</ele><time>2026-08-29T22:56:12Z</time></trkpt><trkpt lat="59.4583958108" lon="30.2881834656"><ele>61.37</ele><time>2026-08-29T22:56:40Z</time></trkpt><trkpt lat="59.4583836570" lon="30.2882797737"><ele>61.65</ele><time>2026-08-29T22:57:01Z</time></trkpt><trkpt lat="59.4583866745" lon="30.2884321567"><ele>61.65</ele><time>2026-08-29T22:57:22Z</time></trkpt><trkpt lat="59.4584316853" lon="30.2885668539"><ele>61.45</ele><time>2026-08-29T22:57:45Z</time></trkpt><trkpt lat="59.4584251475" lon="30.2886568755"><ele>61.33</ele><time>2026-08-29T22:58:04Z</time></trkpt><trkpt lat="59.4584147539" lon="30.2888213284"><ele>61.33</ele><time>2026-08-29T22:58:22Z</time></trkpt><trkpt lat="59.4584345352" lon="30.2889459673"><ele>60.93</ele><time>2026-08-29T22:58:52Z</time></trkpt><trkpt lat="59.4584194478" lon="30.2891348954"><ele>61.39</ele><time>2026-08-29T22:59:12Z</time></trkpt><trkpt lat="59.4584647100" lon="30.2893108316"><ele>61.02</ele><time>2026-08-29T22:59:30Z</time></trkpt><trkpt lat="59.4584927894" lon="30.2894239035"><ele>61.18</ele><time>2026-08-29T22:59:42Z</time></trkpt><trkpt lat="59.4584540650" lon="30.2897226345"><ele>60.84</ele><time>2026-08-29T23:00:01Z</time></trkpt><trkpt lat="59.4584509637" lon="30.2899424080"><ele>60.89</ele><time>2026-08-29T23:00:18Z</time></trkpt><trkpt lat="59.4584709127" lon="30.2901478484"><ele>60.65</ele><time>2026-08-29T23:00:34Z</time></trkpt><trkpt lat="59.4584818929" lon="30.2904673666"><ele>60.77</ele><time>2026-08-29T23:00:54Z</time></trkpt><trkpt lat="59.4584336132" lon="30.2906353399"><ele>60.89</ele><time>2026-08-29T23:01:12Z</time></trkpt><trkpt lat="59.4584095571" lon="30.2906794287"><ele>60.81</ele><time>2026-08-29T23:01:32Z</time></trkpt><trkpt lat="59.4584224652" lon="30.2907315642"><ele>60.73</ele><time>2026-08-29T23:01:59Z</time></trkpt><trkpt lat="59.4583756104" lon="30.2907729708"><ele>60.53</ele><time>2026-08-29T23:02:36Z</time></trkpt><trkpt lat="59.4584336132" lon="30.2907592244"><ele>60.53</ele><time>2026-08-29T23:03:00Z</time></trkpt><trkpt lat="59.4584721699" lon="30.2906790935"><ele>60.38</ele><time>2026-08-29T23:03:18Z</time></trkpt><trkpt lat="59.4585001655" lon="30.2906507626"><ele>60.40</ele><time>2026-08-29T23:03:48Z</time></trkpt><trkpt lat="59.4585272390" lon="30.2906117868"><ele>60.22</ele><time>2026-08-29T23:04:13Z</time></trkpt><trkpt lat="59.4585220423" lon="30.2904781792"><ele>60.79</ele><time>2026-08-29T23:04:36Z</time></trkpt><trkpt lat="59.4585959706" lon="30.2904824540"><ele>61.20</ele><time>2026-08-29T23:04:53Z</time></trkpt><trkpt lat="59.4586805440" lon="30.2905793488"><ele>60.97</ele><time>2026-08-29T23:05:13Z</time></trkpt><trkpt lat="59.4588206057" lon="30.2905794326"><ele>60.84</ele><time>2026-08-29T23:05:30Z</time></trkpt><trkpt lat="59.4589206018" lon="30.2905828692"><ele>60.72</ele><time>2026-08-29T23:05:49Z</time></trkpt><trkpt lat="59.4589599129" lon="30.2906063385"><ele>60.86</ele><time>2026-08-29T23:05:55Z</time></trkpt><trkpt lat="59.4590412173" lon="30.2905681171"><ele>60.95</ele><time>2026-08-29T23:06:05Z</time></trkpt><trkpt lat="59.4590857252" lon="30.2905522753"><ele>61.35</ele><time>2026-08-29T23:06:14Z</time></trkpt><trkpt lat="59.4591967016" lon="30.2905640099"><ele>61.14</ele><time>2026-08-29T23:06:37Z</time></trkpt><trkpt lat="59.4592955243" lon="30.2904609963"><ele>61.56</ele><time>2026-08-29T23:06:58Z</time></trkpt><trkpt lat="59.4593190774" lon="30.2904228587"><ele>61.33</ele><time>2026-08-29T23:07:03Z</time></trkpt><trkpt lat="59.4593869708" lon="30.2903829608"><ele>61.77</ele><time>2026-08-29T23:07:16Z</time></trkpt><trkpt lat="59.4594347477" lon="30.2904284745"><ele>61.58</ele><time>2026-08-29T23:07:26Z</time></trkpt><trkpt lat="59.4595262781" lon="30.2904486749"><ele>61.49</ele><time>2026-08-29T23:07:47Z</time></trkpt><trkpt lat="59.4596094266" lon="30.2904366888"><ele>61.54</ele><time>2026-08-29T23:08:07Z</time></trkpt><trkpt lat="59.4596762303" lon="30.2904106211"><ele>61.34</ele><time>2026-08-29T23:08:27Z</time></trkpt><trkpt lat="59.4597204868" lon="30.2903932706"><ele>61.36</ele><time>2026-08-29T23:08:38Z</time></trkpt><trkpt lat="59.4597708620" lon="30.2903476730"><ele>61.61</ele><time>2026-08-29T23:09:07Z</time></trkpt><trkpt lat="59.4598703552" lon="30.2903982997"><ele>62.10</ele><time>2026-08-29T23:09:36Z</time></trkpt><trkpt lat="59.4598646555" lon="30.2904423047"><ele>61.63</ele><time>2026-08-29T23:09:57Z</time></trkpt><trkpt lat="59.4598769769" lon="30.2904279716"><ele>61.74</ele><time>2026-08-29T23:10:17Z</time></trkpt><trkpt lat="59.4599462114" lon="30.2904208470"><ele>61.86</ele><time>2026-08-29T23:10:37Z</time></trkpt><trkpt lat="59.4600167032" lon="30.2903749142"><ele>61.79</ele><time>2026-08-29T23:10:54Z</time></trkpt><trkpt lat="59.4600305334" lon="30.2904756647"><ele>61.69</ele><time>2026-08-29T23:11:15Z</time></trkpt><trkpt lat="59.4600488059" lon="30.2904065978"><ele>62.43</ele><time>2026-08-29T23:11:51Z</time></trkpt><trkpt lat="59.4600612111" lon="30.2904486749"><ele>62.66</ele><time>2026-08-29T23:12:04Z</time></trkpt><trkpt lat="59.4600383285" lon="30.2906262036"><ele>63.08</ele><time>2026-08-29T23:12:24Z</time></trkpt><trkpt lat="59.4600329641" lon="30.2906471584"><ele>63.15</ele><time>2026-08-29T23:12:26Z</time></trkpt><trkpt lat="59.4600406755" lon="30.2907188237"><ele>62.28</ele><time>2026-08-29T23:12:45Z</time></trkpt><trkpt lat="59.4600769691" lon="30.2907495853"><ele>62.80</ele><time>2026-08-29T23:13:12Z</time></trkpt><trkpt lat="59.4600768853" lon="30.2906080149"><ele>62.01</ele><time>2026-08-29T23:13:36Z</time></trkpt><trkpt lat="59.4600690901" lon="30.2903949469"><ele>62.34</ele><time>2026-08-29T23:13:52Z</time></trkpt><trkpt lat="59.4601193815" lon="30.2902268060"><ele>62.56</ele><time>2026-08-29T23:14:12Z</time></trkpt><trkpt lat="59.4601988420" lon="30.2902110480"><ele>63.10</ele><time>2026-08-29T23:14:32Z</time></trkpt><trkpt lat="59.4602995925" lon="30.2902789414"><ele>62.79</ele><time>2026-08-29T23:14:52Z</time></trkpt><trkpt lat="59.4603753649" lon="30.2903264668"><ele>63.06</ele><time>2026-08-29T23:15:08Z</time></trkpt><trkpt lat="59.4604615308" lon="30.2903378662"><ele>62.73</ele><time>2026-08-29T23:15:25Z</time></trkpt><trkpt lat="59.4605554920" lon="30.2902724035"><ele>63.24</ele><time>2026-08-29T23:15:46Z</time></trkpt><trkpt lat="59.4605665561" lon="30.2902641892"><ele>62.24</ele><time>2026-08-29T23:15:51Z</time></trkpt><trkpt lat="59.4606932066" lon="30.2902633511"><ele>62.81</ele><time>2026-08-29T23:16:14Z</time></trkpt><trkpt lat="59.4607545622" lon="30.2902550530"><ele>62.51</ele><time>2026-08-29T23:16:32Z</time></trkpt><trkpt lat="59.4608155824" lon="30.2902333438"><ele>62.42</ele><time>2026-08-29T23:16:51Z</time></trkpt><trkpt lat="59.4608963002" lon="30.2902105451"><ele>62.99</ele><time>2026-08-29T23:17:16Z</time></trkpt><trkpt lat="59.4609452505" lon="30.2901801188"><ele>63.07</ele><time>2026-08-29T23:17:37Z</time></trkpt><trkpt lat="59.4610140659" lon="30.2901506145"><ele>62.87</ele><time>2026-08-29T23:17:58Z</time></trkpt><trkpt lat="59.4610468391" lon="30.2900540549"><ele>63.06</ele><time>2026-08-29T23:18:29Z</time></trkpt><trkpt lat="59.4610540476" lon="30.2901017480"><ele>63.21</ele><time>2026-08-29T23:19:00Z</time></trkpt><trkpt lat="59.4610812888" lon="30.2901434898"><ele>62.82</ele><time>2026-08-29T23:19:15Z</time></trkpt><trkpt lat="59.4611295685" lon="30.2901615947"><ele>63.18</ele><time>2026-08-29T23:19:33Z</time></trkpt><trkpt lat="59.4611972943" lon="30.2901871596"><ele>62.33</ele><time>2026-08-29T23:19:49Z</time></trkpt><trkpt lat="59.4612658583" lon="30.2901678812"><ele>63.66</ele><time>2026-08-29T23:20:08Z</time></trkpt><trkpt lat="59.4613469113" lon="30.2901842259"><ele>62.92</ele><time>2026-08-29T23:20:28Z</time></trkpt><trkpt lat="59.4614360109" lon="30.2901798673"><ele>63.38</ele><time>2026-08-29T23:20:46Z</time></trkpt><trkpt lat="59.4614969473" lon="30.2901558112"><ele>62.81</ele><time>2026-08-29T23:21:00Z</time></trkpt><trkpt lat="59.4615801796" lon="30.2901061065"><ele>63.41</ele><time>2026-08-29T23:21:19Z</time></trkpt><trkpt lat="59.4616519287" lon="30.2900253888"><ele>63.38</ele><time>2026-08-29T23:21:37Z</time></trkpt><trkpt lat="59.4617079198" lon="30.2900866605"><ele>63.41</ele><time>2026-08-29T23:22:01Z</time></trkpt><trkpt lat="59.4617816806" lon="30.2900169231"><ele>63.52</ele><time>2026-08-29T23:22:21Z</time></trkpt><trkpt lat="59.4618172199" lon="30.2900035121"><ele>63.19</ele><time>2026-08-29T23:22:38Z</time></trkpt><trkpt lat="59.4618722890" lon="30.2899279911"><ele>63.63</ele><time>2026-08-29T23:23:01Z</time></trkpt><trkpt lat="59.4619406853" lon="30.2899102215"><ele>63.21</ele><time>2026-08-29T23:23:19Z</time></trkpt><trkpt lat="59.4619659986" lon="30.2898175176"><ele>63.62</ele><time>2026-08-29T23:23:40Z</time></trkpt><trkpt lat="59.4619952515" lon="30.2897630353"><ele>64.20</ele><time>2026-08-29T23:24:02Z</time></trkpt><trkpt lat="59.4620550144" lon="30.2898315992"><ele>64.25</ele><time>2026-08-29T23:24:25Z</time></trkpt><trkpt lat="59.4620897155" lon="30.2898494527"><ele>64.21</ele><time>2026-08-29T23:24:44Z</time></trkpt><trkpt lat="59.4621500652" lon="30.2898282465"><ele>64.39</ele><time>2026-08-29T23:25:05Z</time></trkpt><trkpt lat="59.4622300286" lon="30.2898503747"><ele>64.34</ele><time>2026-08-29T23:25:24Z</time></trkpt><trkpt lat="59.4622592814" lon="30.2898149192"><ele>64.24</ele><time>2026-08-29T23:25:41Z</time></trkpt><trkpt lat="59.4623064715" lon="30.2897813078"><ele>64.56</ele><time>2026-08-29T23:26:02Z</time></trkpt><trkpt lat="59.4623301085" lon="30.2898001671"><ele>64.55</ele><time>2026-08-29T23:26:39Z</time></trkpt><trkpt lat="59.4623782206" lon="30.2897805534"><ele>64.53</ele><time>2026-08-29T23:27:07Z</time></trkpt><trkpt lat="59.4624125026" lon="30.2898003347"><ele>64.86</ele><time>2026-08-29T23:27:28Z</time></trkpt><trkpt lat="59.4624539092" lon="30.2898282465"><ele>64.88</ele><time>2026-08-29T23:27:45Z</time></trkpt><trkpt lat="59.4624939747" lon="30.2899033483"><ele>64.80</ele><time>2026-08-29T23:28:03Z</time></trkpt><trkpt lat="59.4625533186" lon="30.2899334393"><ele>64.99</ele><time>2026-08-29T23:28:22Z</time></trkpt><trkpt lat="59.4626006763" lon="30.2899048571"><ele>65.05</ele><time>2026-08-29T23:28:46Z</time></trkpt><trkpt lat="59.4626392331" lon="30.2898563258"><ele>65.04</ele><time>2026-08-29T23:29:10Z</time></trkpt><trkpt lat="59.4627233036" lon="30.2897417452"><ele>64.59</ele><time>2026-08-29T23:29:33Z</time></trkpt><trkpt lat="59.4628068712" lon="30.2896811441"><ele>65.92</ele><time>2026-08-29T23:29:54Z</time></trkpt><trkpt lat="59.4628770277" lon="30.2896514721"><ele>65.41</ele><time>2026-08-29T23:30:14Z</time></trkpt><trkpt lat="59.4629506208" lon="30.2896470297"><ele>65.46</ele><time>2026-08-29T23:30:33Z</time></trkpt><trkpt lat="59.4630302489" lon="30.2895876858"><ele>65.74</ele><time>2026-08-29T23:30:52Z</time></trkpt><trkpt lat="59.4631125592" lon="30.2896000911"><ele>65.80</ele><time>2026-08-29T23:31:12Z</time></trkpt><trkpt lat="59.4631901756" lon="30.2896032762"><ele>65.37</ele><time>2026-08-29T23:31:33Z</time></trkpt><trkpt lat="59.4632897526" lon="30.2895368077"><ele>65.76</ele><time>2026-08-29T23:31:52Z</time></trkpt><trkpt lat="59.4633552153" lon="30.2895622049"><ele>65.52</ele><time>2026-08-29T23:32:13Z</time></trkpt><trkpt lat="59.4634319097" lon="30.2896539029"><ele>65.46</ele><time>2026-08-29T23:32:34Z</time></trkpt><trkpt lat="59.4634915888" lon="30.2896741871"><ele>65.75</ele><time>2026-08-29T23:32:51Z</time></trkpt><trkpt lat="59.4635498431" lon="30.2896819822"><ele>65.40</ele><time>2026-08-29T23:33:13Z</time></trkpt><trkpt lat="59.4636329077" lon="30.2896218002"><ele>65.74</ele><time>2026-08-29T23:33:32Z</time></trkpt><trkpt lat="59.4637363404" lon="30.2895891108"><ele>65.92</ele><time>2026-08-29T23:34:00Z</time></trkpt><trkpt lat="59.4637083448" lon="30.2895633783"><ele>66.03</ele><time>2026-08-29T23:34:29Z</time></trkpt><trkpt lat="59.4637230970" lon="30.2895249892"><ele>65.93</ele><time>2026-08-29T23:35:04Z</time></trkpt><trkpt lat="59.4637686107" lon="30.2895964030"><ele>65.90</ele><time>2026-08-29T23:35:26Z</time></trkpt><trkpt lat="59.4638326485" lon="30.2895444352"><ele>65.55</ele><time>2026-08-29T23:35:45Z</time></trkpt><trkpt lat="59.4638894778" lon="30.2894499712"><ele>65.51</ele><time>2026-08-29T23:36:04Z</time></trkpt><trkpt lat="59.4639399368" lon="30.2894399129"><ele>65.58</ele><time>2026-08-29T23:36:22Z</time></trkpt><trkpt lat="59.4640242588" lon="30.2894443553"><ele>65.82</ele><time>2026-08-29T23:36:41Z</time></trkpt><trkpt lat="59.4640994444" lon="30.2894842532"><ele>65.87</ele><time>2026-08-29T23:36:59Z</time></trkpt><trkpt lat="59.4641795754" lon="30.2894464508"><ele>65.48</ele><time>2026-08-29T23:37:16Z</time></trkpt><trkpt lat="59.4642732851" lon="30.2894659806"><ele>65.13</ele><time>2026-08-29T23:37:34Z</time></trkpt><trkpt lat="59.4643895421" lon="30.2894935571"><ele>65.21</ele><time>2026-08-29T23:37:52Z</time></trkpt><trkpt lat="59.4644619618" lon="30.2894936409"><ele>65.31</ele><time>2026-08-29T23:38:07Z</time></trkpt><trkpt lat="59.4645419251" lon="30.2895172779"><ele>65.29</ele><time>2026-08-29T23:38:28Z</time></trkpt><trkpt lat="59.4646093994" lon="30.2894847561"><ele>65.17</ele><time>2026-08-29T23:38:55Z</time></trkpt><trkpt lat="59.4646925479" lon="30.2894700039"><ele>65.72</ele><time>2026-08-29T23:39:13Z</time></trkpt><trkpt lat="59.4647923764" lon="30.2894294355"><ele>65.11</ele><time>2026-08-29T23:39:31Z</time></trkpt><trkpt lat="59.4648198690" lon="30.2894272562"><ele>64.99</ele><time>2026-08-29T23:39:39Z</time></trkpt><trkpt lat="59.4649233855" lon="30.2893819939"><ele>64.87</ele><time>2026-08-29T23:39:56Z</time></trkpt><trkpt lat="59.4649816398" lon="30.2894104924"><ele>65.06</ele><time>2026-08-29T23:40:17Z</time></trkpt><trkpt lat="59.4650282431" lon="30.2894555870"><ele>64.99</ele><time>2026-08-29T23:40:36Z</time></trkpt><trkpt lat="59.4650605973" lon="30.2894708421"><ele>64.83</ele><time>2026-08-29T23:40:58Z</time></trkpt><trkpt lat="59.4650836475" lon="30.2894871868"><ele>64.89</ele><time>2026-08-29T23:41:24Z</time></trkpt><trkpt lat="59.4650990702" lon="30.2894868515"><ele>64.97</ele><time>2026-08-29T23:41:59Z</time></trkpt><trkpt lat="59.4651239645" lon="30.2894613706"><ele>65.06</ele><time>2026-08-29T23:42:24Z</time></trkpt><trkpt lat="59.4650605973" lon="30.2894690819"><ele>65.07</ele><time>2026-08-29T23:42:50Z</time></trkpt><trkpt lat="59.4650849886" lon="30.2894575987"><ele>65.12</ele><time>2026-08-29T23:43:20Z</time></trkpt><trkpt lat="59.4650990702" lon="30.2894535754"><ele>65.21</ele><time>2026-08-29T23:43:47Z</time></trkpt><trkpt lat="59.4650952145" lon="30.2894117497"><ele>65.16</ele><time>2026-08-29T23:44:18Z</time></trkpt><trkpt lat="59.4650994055" lon="30.2894168627"><ele>65.87</ele><time>2026-08-29T23:44:49Z</time></trkpt><trkpt lat="59.4650791213" lon="30.2894337103"><ele>65.62</ele><time>2026-08-29T23:45:12Z</time></trkpt><trkpt lat="59.4651032612" lon="30.2894399129"><ele>65.51</ele><time>2026-08-29T23:45:38Z</time></trkpt><trkpt lat="59.4651597552" lon="30.2893487178"><ele>66.14</ele><time>2026-08-29T23:45:53Z</time></trkpt><trkpt lat="59.4652335159" lon="30.2893528249"><ele>66.16</ele><time>2026-08-29T23:46:12Z</time></trkpt><trkpt lat="59.4652989786" lon="30.2893384080"><ele>66.09</ele><time>2026-08-29T23:46:29Z</time></trkpt><trkpt lat="59.4653557241" lon="30.2893409226"><ele>66.13</ele><time>2026-08-29T23:46:49Z</time></trkpt><trkpt lat="59.4654117152" lon="30.2893511485"><ele>65.69</ele><time>2026-08-29T23:47:07Z</time></trkpt><trkpt lat="59.4654792733" lon="30.2893448621"><ele>65.96</ele><time>2026-08-29T23:47:27Z</time></trkpt><trkpt lat="59.4655771740" lon="30.2892591152"><ele>65.90</ele><time>2026-08-29T23:47:45Z</time></trkpt><trkpt lat="59.4656503480" lon="30.2891945746"><ele>65.53</ele><time>2026-08-29T23:48:05Z</time></trkpt><trkpt lat="59.4657228515" lon="30.2892083209"><ele>65.96</ele><time>2026-08-29T23:48:27Z</time></trkpt><trkpt lat="59.4657882303" lon="30.2893124241"><ele>65.98</ele><time>2026-08-29T23:48:47Z</time></trkpt><trkpt lat="59.4659103546" lon="30.2891882882"><ele>66.26</ele><time>2026-08-29T23:49:07Z</time></trkpt><trkpt lat="59.4659475703" lon="30.2891683392"><ele>66.02</ele><time>2026-08-29T23:49:30Z</time></trkpt><trkpt lat="59.4660527632" lon="30.2891572751"><ele>66.25</ele><time>2026-08-29T23:49:51Z</time></trkpt><trkpt lat="59.4660660904" lon="30.2891762182"><ele>66.25</ele><time>2026-08-29T23:50:13Z</time></trkpt><trkpt lat="59.4661029708" lon="30.2891673334"><ele>66.09</ele><time>2026-08-29T23:50:43Z</time></trkpt><trkpt lat="59.4660916552" lon="30.2892133500"><ele>66.13</ele><time>2026-08-29T23:51:13Z</time></trkpt><trkpt lat="59.4661282003" lon="30.2890780661"><ele>65.92</ele><time>2026-08-29T23:51:34Z</time></trkpt><trkpt lat="59.4661959261" lon="30.2890724503"><ele>66.11</ele><time>2026-08-29T23:51:52Z</time></trkpt><trkpt lat="59.4662411045" lon="30.2890405152"><ele>65.82</ele><time>2026-08-29T23:52:26Z</time></trkpt><trkpt lat="59.4662934076" lon="30.2890606318"><ele>65.95</ele><time>2026-08-29T23:52:48Z</time></trkpt><trkpt lat="59.4662836008" lon="30.2890479751"><ele>65.22</ele><time>2026-08-29T23:53:09Z</time></trkpt><trkpt lat="59.4662452117" lon="30.2890035510"><ele>65.20</ele><time>2026-08-29T23:53:40Z</time></trkpt><trkpt lat="59.4662493188" lon="30.2889581211"><ele>65.86</ele><time>2026-08-29T23:54:09Z</time></trkpt><trkpt lat="59.4663045555" lon="30.2891271841"><ele>65.38</ele><time>2026-08-29T23:54:30Z</time></trkpt><trkpt lat="59.4663918950" lon="30.2891403437"><ele>65.26</ele><time>2026-08-29T23:54:51Z</time></trkpt><trkpt lat="59.4665028714" lon="30.2890529204"><ele>65.29</ele><time>2026-08-29T23:55:12Z</time></trkpt><trkpt lat="59.4665537495" lon="30.2890255954"><ele>65.20</ele><time>2026-08-29T23:55:21Z</time></trkpt><trkpt lat="59.4666083995" lon="30.2889830992"><ele>65.20</ele><time>2026-08-29T23:55:40Z</time></trkpt><trkpt lat="59.4667049590" lon="30.2889770642"><ele>64.94</ele><time>2026-08-29T23:56:04Z</time></trkpt><trkpt lat="59.4668248203" lon="30.2890091669"><ele>65.19</ele><time>2026-08-29T23:56:25Z</time></trkpt><trkpt lat="59.4669550750" lon="30.2890111785"><ele>65.21</ele><time>2026-08-29T23:56:43Z</time></trkpt><trkpt lat="59.4670144189" lon="30.2890311275"><ele>65.95</ele><time>2026-08-29T23:57:00Z</time></trkpt><trkpt lat="59.4670621958" lon="30.2890141122"><ele>65.47</ele><time>2026-08-29T23:57:26Z</time></trkpt><trkpt lat="59.4670852460" lon="30.2890064847"><ele>65.27</ele><time>2026-08-29T23:57:54Z</time></trkpt><trkpt lat="59.4670702424" lon="30.2889517508"><ele>65.15</ele><time>2026-08-29T23:58:10Z</time></trkpt><trkpt lat="59.4670026004" lon="30.2889271919"><ele>65.30</ele><time>2026-08-29T23:58:39Z</time></trkpt><trkpt lat="59.4670297578" lon="30.2889986057"><ele>65.74</ele><time>2026-08-29T23:59:05Z</time></trkpt><trkpt lat="59.4670160115" lon="30.2890270203"><ele>65.72</ele><time>2026-08-29T23:59:26Z</time></trkpt><trkpt lat="59.4669869263" lon="30.2889558580"><ele>65.29</ele><time>2026-08-30T00:00:08Z</time></trkpt><trkpt lat="59.4669847470" lon="30.2890458796"><ele>65.06</ele><time>2026-08-30T00:00:32Z</time></trkpt><trkpt lat="59.4670468569" lon="30.2893536631"><ele>64.99</ele><time>2026-08-30T00:00:53Z</time></trkpt><trkpt lat="59.4670675602" lon="30.2897238918"><ele>64.93</ele><time>2026-08-30T00:01:11Z</time></trkpt><trkpt lat="59.4670599326" lon="30.2901787777"><ele>64.92</ele><time>2026-08-30T00:01:31Z</time></trkpt><trkpt lat="59.4670509640" lon="30.2905146405"><ele>64.72</ele><time>2026-08-30T00:01:48Z</time></trkpt><trkpt lat="59.4670443423" lon="30.2907728869"><ele>64.91</ele><time>2026-08-30T00:01:59Z</time></trkpt><trkpt lat="59.4670452643" lon="30.2908856235"><ele>64.80</ele><time>2026-08-30T00:02:04Z</time></trkpt><trkpt lat="59.4670697395" lon="30.2913015336"><ele>64.71</ele><time>2026-08-30T00:02:21Z</time></trkpt><trkpt lat="59.4670817256" lon="30.2915373165"><ele>65.11</ele><time>2026-08-30T00:02:40Z</time></trkpt><trkpt lat="59.4670828991" lon="30.2915674914"><ele>64.73</ele><time>2026-08-30T00:02:59Z</time></trkpt><trkpt lat="59.4670761097" lon="30.2916210517"><ele>64.49</ele><time>2026-08-30T00:03:25Z</time></trkpt><trkpt lat="59.4670830667" lon="30.2916148491"><ele>63.90</ele><time>2026-08-30T00:03:37Z</time></trkpt><trkpt lat="59.4670832343" lon="30.2915537450"><ele>63.54</ele><time>2026-08-30T00:04:07Z</time></trkpt><trkpt lat="59.4670761097" lon="30.2915723529"><ele>64.09</ele><time>2026-08-30T00:04:35Z</time></trkpt><trkpt lat="59.4671092182" lon="30.2915840875"><ele>64.29</ele><time>2026-08-30T00:05:07Z</time></trkpt><trkpt lat="59.4671206176" lon="30.2915953193"><ele>64.04</ele><time>2026-08-30T00:05:37Z</time></trkpt><trkpt lat="59.4670802169" lon="30.2915530745"><ele>64.10</ele><time>2026-08-30T00:06:04Z</time></trkpt><trkpt lat="59.4670764450" lon="30.2915544156"><ele>64.10</ele><time>2026-08-30T00:06:05Z</time></trkpt><trkpt lat="59.4670641236" lon="30.2915979177"><ele>63.41</ele><time>2026-08-30T00:06:18Z</time></trkpt><trkpt lat="59.4669886027" lon="30.2915532421"><ele>63.36</ele><time>2026-08-30T00:06:38Z</time></trkpt><trkpt lat="59.4669649657" lon="30.2915594447"><ele>63.27</ele><time>2026-08-30T00:06:42Z</time></trkpt><trkpt lat="59.4668481220" lon="30.2915773820"><ele>63.39</ele><time>2026-08-30T00:06:58Z</time></trkpt><trkpt lat="59.4667327870" lon="30.2916021924"><ele>63.82</ele><time>2026-08-30T00:07:20Z</time></trkpt><trkpt lat="59.4666840043" lon="30.2916414198"><ele>63.90</ele><time>2026-08-30T00:07:30Z</time></trkpt><trkpt lat="59.4665924739" lon="30.2916555014"><ele>63.47</ele><time>2026-08-30T00:07:47Z</time></trkpt><trkpt lat="59.4665110018" lon="30.2917819005"><ele>63.33</ele><time>2026-08-30T00:08:09Z</time></trkpt><trkpt lat="59.4663975108" lon="30.2918833215"><ele>63.03</ele><time>2026-08-30T00:08:28Z</time></trkpt><trkpt lat="59.4662883785" lon="30.2919319365"><ele>63.60</ele><time>2026-08-30T00:08:48Z</time></trkpt><trkpt lat="59.4662164617" lon="30.2919638716"><ele>63.33</ele><time>2026-08-30T00:09:07Z</time></trkpt><trkpt lat="59.4661357440" lon="30.2918954752"><ele>63.43</ele><time>2026-08-30T00:09:25Z</time></trkpt><trkpt lat="59.4660220854" lon="30.2918399870"><ele>63.62</ele><time>2026-08-30T00:09:43Z</time></trkpt><trkpt lat="59.4659403618" lon="30.2919405699"><ele>63.72</ele><time>2026-08-30T00:10:03Z</time></trkpt><trkpt lat="59.4658515975" lon="30.2919651289"><ele>63.46</ele><time>2026-08-30T00:10:20Z</time></trkpt><trkpt lat="59.4657391962" lon="30.2919136640"><ele>63.57</ele><time>2026-08-30T00:10:41Z</time></trkpt><trkpt lat="59.4656665251" lon="30.2919701580"><ele>63.31</ele><time>2026-08-30T00:11:11Z</time></trkpt><trkpt lat="59.4656462409" lon="30.2919595968"><ele>63.41</ele><time>2026-08-30T00:11:42Z</time></trkpt><trkpt lat="59.4656178262" lon="30.2919622790"><ele>63.80</ele><time>2026-08-30T00:12:13Z</time></trkpt><trkpt lat="59.4655498490" lon="30.2919202857"><ele>64.15</ele><time>2026-08-30T00:12:30Z</time></trkpt><trkpt lat="59.4654711429" lon="30.2918584272"><ele>63.53</ele><time>2026-08-30T00:12:50Z</time></trkpt><trkpt lat="59.4653753377" lon="30.2918866742"><ele>63.82</ele><time>2026-08-30T00:13:05Z</time></trkpt><trkpt lat="59.4652633555" lon="30.2918607742"><ele>63.80</ele><time>2026-08-30T00:13:22Z</time></trkpt><trkpt lat="59.4651799556" lon="30.2918728441"><ele>64.00</ele><time>2026-08-30T00:13:39Z</time></trkpt><trkpt lat="59.4651505351" lon="30.2919546515"><ele>63.72</ele><time>2026-08-30T00:13:56Z</time></trkpt><trkpt lat="59.4650924485" lon="30.2920352854"><ele>63.68</ele><time>2026-08-30T00:14:13Z</time></trkpt><trkpt lat="59.4650293328" lon="30.2921253070"><ele>63.97</ele><time>2026-08-30T00:14:30Z</time></trkpt><trkpt lat="59.4649334438" lon="30.2921585832"><ele>63.56</ele><time>2026-08-30T00:14:48Z</time></trkpt><trkpt lat="59.4648179412" lon="30.2921668813"><ele>64.05</ele><time>2026-08-30T00:15:03Z</time></trkpt><trkpt lat="59.4647144247" lon="30.2921734191"><ele>64.15</ele><time>2026-08-30T00:15:21Z</time></trkpt><trkpt lat="59.4646425080" lon="30.2920870855"><ele>64.00</ele><time>2026-08-30T00:15:36Z</time></trkpt><trkpt lat="59.4646306057" lon="30.2920906059"><ele>64.05</ele><time>2026-08-30T00:15:41Z</time></trkpt><trkpt lat="59.4645356387" lon="30.2921274025"><ele>64.10</ele><time>2026-08-30T00:16:00Z</time></trkpt><trkpt lat="59.4644540828" lon="30.2920516301"><ele>64.04</ele><time>2026-08-30T00:16:19Z</time></trkpt><trkpt lat="59.4643729459" lon="30.2921544760"><ele>64.55</ele><time>2026-08-30T00:16:36Z</time></trkpt><trkpt lat="59.4643173739" lon="30.2921407297"><ele>64.48</ele><time>2026-08-30T00:16:59Z</time></trkpt><trkpt lat="59.4642996043" lon="30.2920918632"><ele>63.86</ele><time>2026-08-30T00:17:26Z</time></trkpt><trkpt lat="59.4643478002" lon="30.2921531349"><ele>63.73</ele><time>2026-08-30T00:17:55Z</time></trkpt><trkpt lat="59.4642882887" lon="30.2922385465"><ele>63.78</ele><time>2026-08-30T00:18:20Z</time></trkpt><trkpt lat="59.4642389193" lon="30.2922437433"><ele>63.99</ele><time>2026-08-30T00:18:42Z</time></trkpt><trkpt lat="59.4642104208" lon="30.2922294103"><ele>63.69</ele><time>2026-08-30T00:18:51Z</time></trkpt><trkpt lat="59.4640926551" lon="30.2922850661"><ele>64.02</ele><time>2026-08-30T00:19:08Z</time></trkpt><trkpt lat="59.4639989454" lon="30.2922649495"><ele>64.03</ele><time>2026-08-30T00:19:25Z</time></trkpt><trkpt lat="59.4639143720" lon="30.2922480181"><ele>64.43</ele><time>2026-08-30T00:19:42Z</time></trkpt><trkpt lat="59.4638811797" lon="30.2922922745"><ele>64.19</ele><time>2026-08-30T00:19:55Z</time></trkpt><trkpt lat="59.4638427906" lon="30.2922757622"><ele>64.26</ele><time>2026-08-30T00:20:01Z</time></trkpt><trkpt lat="59.4637061656" lon="30.2922823001"><ele>64.38</ele><time>2026-08-30T00:20:17Z</time></trkpt><trkpt lat="59.4636433851" lon="30.2923439909"><ele>64.30</ele><time>2026-08-30T00:20:28Z</time></trkpt><trkpt lat="59.4636318181" lon="30.2923514508"><ele>64.27</ele><time>2026-08-30T00:20:30Z</time></trkpt><trkpt lat="59.4636088517" lon="30.2923579048"><ele>64.21</ele><time>2026-08-30T00:20:33Z</time></trkpt><trkpt lat="59.4634883199" lon="30.2923993114"><ele>64.41</ele><time>2026-08-30T00:20:52Z</time></trkpt><trkpt lat="59.4633600768" lon="30.2924107108"><ele>64.47</ele><time>2026-08-30T00:21:12Z</time></trkpt><trkpt lat="59.4633067679" lon="30.2923840564"><ele>64.40</ele><time>2026-08-30T00:21:22Z</time></trkpt><trkpt lat="59.4631664548" lon="30.2924184222"><ele>64.25</ele><time>2026-08-30T00:21:41Z</time></trkpt><trkpt lat="59.4630560651" lon="30.2924298216"><ele>64.45</ele><time>2026-08-30T00:21:56Z</time></trkpt><trkpt lat="59.4630347751" lon="30.2924283966"><ele>64.78</ele><time>2026-08-30T00:21:59Z</time></trkpt><trkpt lat="59.4629668817" lon="30.2924365271"><ele>64.68</ele><time>2026-08-30T00:22:24Z</time></trkpt><trkpt lat="59.4629540574" lon="30.2923869900"><ele>64.65</ele><time>2026-08-30T00:22:54Z</time></trkpt><trkpt lat="59.4629535545" lon="30.2924272232"><ele>64.84</ele><time>2026-08-30T00:23:24Z</time></trkpt><trkpt lat="59.4629119802" lon="30.2924841363"><ele>65.14</ele><time>2026-08-30T00:23:48Z</time></trkpt><trkpt lat="59.4629039336" lon="30.2924534585"><ele>64.83</ele><time>2026-08-30T00:24:07Z</time></trkpt><trkpt lat="59.4628267363" lon="30.2924308274"><ele>64.56</ele><time>2026-08-30T00:24:27Z</time></trkpt><trkpt lat="59.4627125748" lon="30.2923608385"><ele>64.54</ele><time>2026-08-30T00:24:48Z</time></trkpt><trkpt lat="59.4625922944" lon="30.2923498582"><ele>64.68</ele><time>2026-08-30T00:25:07Z</time></trkpt><trkpt lat="59.4625477027" lon="30.2923367824"><ele>64.56</ele><time>2026-08-30T00:25:17Z</time></trkpt><trkpt lat="59.4623827469" lon="30.2922465932"><ele>64.53</ele><time>2026-08-30T00:25:36Z</time></trkpt><trkpt lat="59.4623026997" lon="30.2923587430"><ele>64.74</ele><time>2026-08-30T00:25:55Z</time></trkpt><trkpt lat="59.4622137677" lon="30.2924501896"><ele>64.70</ele><time>2026-08-30T00:26:15Z</time></trkpt><trkpt lat="59.4621440303" lon="30.2924581524"><ele>64.90</ele><time>2026-08-30T00:26:33Z</time></trkpt><trkpt lat="59.4621280208" lon="30.2925581485"><ele>64.77</ele><time>2026-08-30T00:26:46Z</time></trkpt><trkpt lat="59.4620607980" lon="30.2926184982"><ele>64.86</ele><time>2026-08-30T00:27:05Z</time></trkpt><trkpt lat="59.4620485604" lon="30.2925990522"><ele>64.57</ele><time>2026-08-30T00:27:14Z</time></trkpt><trkpt lat="59.4619660825" lon="30.2925718948"><ele>64.82</ele><time>2026-08-30T00:27:29Z</time></trkpt><trkpt lat="59.4618941657" lon="30.2924942784"><ele>64.82</ele><time>2026-08-30T00:27:45Z</time></trkpt><trkpt lat="59.4617923256" lon="30.2924461663"><ele>65.21</ele><time>2026-08-30T00:28:00Z</time></trkpt><trkpt lat="59.4617038965" lon="30.2924713120"><ele>65.20</ele><time>2026-08-30T00:28:20Z</time></trkpt><trkpt lat="59.4616465643" lon="30.2925348468"><ele>64.88</ele><time>2026-08-30T00:28:39Z</time></trkpt><trkpt lat="59.4616119470" lon="30.2926749922"><ele>64.93</ele><time>2026-08-30T00:29:01Z</time></trkpt><trkpt lat="59.4615635835" lon="30.2927144710"><ele>65.31</ele><time>2026-08-30T00:29:30Z</time></trkpt><trkpt lat="59.4615464844" lon="30.2927156445"><ele>65.01</ele><time>2026-08-30T00:29:59Z</time></trkpt><trkpt lat="59.4614637550" lon="30.2926934324"><ele>65.23</ele><time>2026-08-30T00:30:19Z</time></trkpt><trkpt lat="59.4614459854" lon="30.2926623356"><ele>65.32</ele><time>2026-08-30T00:30:26Z</time></trkpt><trkpt lat="59.4613568019" lon="30.2926843800"><ele>65.25</ele><time>2026-08-30T00:30:46Z</time></trkpt><trkpt lat="59.4613204245" lon="30.2927545365"><ele>65.43</ele><time>2026-08-30T00:31:04Z</time></trkpt><trkpt lat="59.4612659421" lon="30.2927562129"><ele>65.43</ele><time>2026-08-30T00:31:17Z</time></trkpt><trkpt lat="59.4611761719" lon="30.2928237710"><ele>65.48</ele><time>2026-08-30T00:31:36Z</time></trkpt><trkpt lat="59.4610666204" lon="30.2928526886"><ele>65.47</ele><time>2026-08-30T00:31:56Z</time></trkpt><trkpt lat="59.4610289857" lon="30.2928512637"><ele>65.14</ele><time>2026-08-30T00:32:05Z</time></trkpt><trkpt lat="59.4609538000" lon="30.2928747330"><ele>65.65</ele><time>2026-08-30T00:32:24Z</time></trkpt><trkpt lat="59.4609102979" lon="30.2928811871"><ele>65.67</ele><time>2026-08-30T00:32:42Z</time></trkpt><trkpt lat="59.4608402252" lon="30.2929204144"><ele>65.69</ele><time>2026-08-30T00:33:01Z</time></trkpt><trkpt lat="59.4607664645" lon="30.2929215878"><ele>65.77</ele><time>2026-08-30T00:33:20Z</time></trkpt><trkpt lat="59.4607460964" lon="30.2928500064"><ele>65.92</ele><time>2026-08-30T00:33:39Z</time></trkpt><trkpt lat="59.4607125688" lon="30.2928974479"><ele>66.10</ele><time>2026-08-30T00:33:52Z</time></trkpt><trkpt lat="59.4606525544" lon="30.2928948496"><ele>66.51</ele><time>2026-08-30T00:34:08Z</time></trkpt><trkpt lat="59.4606106449" lon="30.2928318176"><ele>65.76</ele><time>2026-08-30T00:34:33Z</time></trkpt><trkpt lat="59.4606022630" lon="30.2928980347"><ele>65.95</ele><time>2026-08-30T00:34:49Z</time></trkpt><trkpt lat="59.4605902769" lon="30.2929015551"><ele>65.64</ele><time>2026-08-30T00:34:54Z</time></trkpt><trkpt lat="59.4605523068" lon="30.2928882279"><ele>66.01</ele><time>2026-08-30T00:35:14Z</time></trkpt><trkpt lat="59.4605355430" lon="30.2928821929"><ele>65.70</ele><time>2026-08-30T00:35:20Z</time></trkpt><trkpt lat="59.4604997523" lon="30.2929021418"><ele>66.01</ele><time>2026-08-30T00:35:40Z</time></trkpt><trkpt lat="59.4604066294" lon="30.2928948496"><ele>66.23</ele><time>2026-08-30T00:36:01Z</time></trkpt><trkpt lat="59.4603927992" lon="30.2929081768"><ele>66.46</ele><time>2026-08-30T00:36:29Z</time></trkpt><trkpt lat="59.4604164362" lon="30.2928819414"><ele>66.13</ele><time>2026-08-30T00:36:57Z</time></trkpt><trkpt lat="59.4604116585" lon="30.2929084282"><ele>66.57</ele><time>2026-08-30T00:37:25Z</time></trkpt><trkpt lat="59.4603773765" lon="30.2928982861"><ele>66.76</ele><time>2026-08-30T00:37:36Z</time></trkpt><trkpt lat="59.4602942280" lon="30.2929162234"><ele>67.32</ele><time>2026-08-30T00:38:00Z</time></trkpt><trkpt lat="59.4602061342" lon="30.2929002978"><ele>66.67</ele><time>2026-08-30T00:38:18Z</time></trkpt><trkpt lat="59.4601204712" lon="30.2928370982"><ele>67.19</ele><time>2026-08-30T00:38:40Z</time></trkpt><trkpt lat="59.4600350596" lon="30.2928052470"><ele>66.69</ele><time>2026-08-30T00:39:03Z</time></trkpt><trkpt lat="59.4599110913" lon="30.2928919159"><ele>67.12</ele><time>2026-08-30T00:39:24Z</time></trkpt><trkpt lat="59.4597636536" lon="30.2930409461"><ele>66.79</ele><time>2026-08-30T00:39:44Z</time></trkpt><trkpt lat="59.4596410263" lon="30.2931606397"><ele>67.16</ele><time>2026-08-30T00:40:03Z</time></trkpt><trkpt lat="59.4595629070" lon="30.2931449655"><ele>67.28</ele><time>2026-08-30T00:40:21Z</time></trkpt><trkpt lat="59.4595494960" lon="30.2931026369"><ele>67.37</ele><time>2026-08-30T00:40:24Z</time></trkpt><trkpt lat="59.4594926666" lon="30.2930456400"><ele>67.39</ele><time>2026-08-30T00:40:43Z</time></trkpt><trkpt lat="59.4594369270" lon="30.2930536028"><ele>67.16</ele><time>2026-08-30T00:40:58Z</time></trkpt><trkpt lat="59.4593864679" lon="30.2931009606"><ele>67.07</ele><time>2026-08-30T00:41:30Z</time></trkpt><trkpt lat="59.4594041537" lon="30.2930371743"><ele>66.80</ele><time>2026-08-30T00:42:09Z</time></trkpt><trkpt lat="59.4593557902" lon="30.2931323927"><ele>66.65</ele><time>2026-08-30T00:42:32Z</time></trkpt><trkpt lat="59.4592697080" lon="30.2932047285"><ele>66.73</ele><time>2026-08-30T00:42:52Z</time></trkpt><trkpt lat="59.4591963664" lon="30.2932768967"><ele>67.45</ele><time>2026-08-30T00:43:07Z</time></trkpt><trkpt lat="59.4591225218" lon="30.2932968456"><ele>67.27</ele><time>2026-08-30T00:43:25Z</time></trkpt><trkpt lat="59.4590676203" lon="30.2932004537"><ele>66.78</ele><time>2026-08-30T00:43:45Z</time></trkpt><trkpt lat="59.4590288121" lon="30.2930658404"><ele>66.71</ele><time>2026-08-30T00:44:05Z</time></trkpt><trkpt lat="59.4589965418" lon="30.2930729650"><ele>66.91</ele><time>2026-08-30T00:44:14Z</time></trkpt><trkpt lat="59.4589185063" lon="30.2930387668"><ele>66.97</ele><time>2026-08-30T00:44:32Z</time></trkpt><trkpt lat="59.4588450808" lon="30.2930648346"><ele>66.86</ele><time>2026-08-30T00:44:51Z</time></trkpt><trkpt lat="59.4587625191" lon="30.2931254357"><ele>66.89</ele><time>2026-08-30T00:45:08Z</time></trkpt><trkpt lat="59.4586940389" lon="30.2931434568"><ele>67.03</ele><time>2026-08-30T00:45:24Z</time></trkpt><trkpt lat="59.4586061127" lon="30.2931290399"><ele>67.00</ele><time>2026-08-30T00:45:40Z</time></trkpt><trkpt lat="59.4585124869" lon="30.2931119408"><ele>66.71</ele><time>2026-08-30T00:45:57Z</time></trkpt><trkpt lat="59.4585138280" lon="30.2930786647"><ele>66.65</ele><time>2026-08-30T00:46:20Z</time></trkpt><trkpt lat="59.4585340284" lon="30.2930152137"><ele>67.14</ele><time>2026-08-30T00:46:41Z</time></trkpt><trkpt lat="59.4585243892" lon="30.2930261940"><ele>66.94</ele><time>2026-08-30T00:47:08Z</time></trkpt><trkpt lat="59.4585497864" lon="30.2929189894"><ele>67.03</ele><time>2026-08-30T00:47:28Z</time></trkpt><trkpt lat="59.4585649576" lon="30.2929554507"><ele>66.22</ele><time>2026-08-30T00:47:47Z</time></trkpt><trkpt lat="59.4585522171" lon="30.2929495834"><ele>65.97</ele><time>2026-08-30T00:48:27Z</time></trkpt><trkpt lat="59.4585471880" lon="30.2929465659"><ele>66.21</ele><time>2026-08-30T00:48:58Z</time></trkpt><trkpt lat="59.4585179351" lon="30.2929837815"><ele>66.07</ele><time>2026-08-30T00:49:16Z</time></trkpt><trkpt lat="59.4585289992" lon="30.2929876372"><ele>66.39</ele><time>2026-08-30T00:49:50Z</time></trkpt><trkpt lat="59.4585346989" lon="30.2929534391"><ele>66.25</ele><time>2026-08-30T00:50:18Z</time></trkpt><trkpt lat="59.4585366268" lon="30.2929965220"><ele>67.32</ele><time>2026-08-30T00:50:34Z</time></trkpt><trkpt lat="59.4585155044" lon="30.2930401918"><ele>67.25</ele><time>2026-08-30T00:50:40Z</time></trkpt><trkpt lat="59.4584964775" lon="30.2930556145"><ele>66.37</ele><time>2026-08-30T00:51:04Z</time></trkpt><trkpt lat="59.4585007522" lon="30.2930317260"><ele>66.45</ele><time>2026-08-30T00:51:17Z</time></trkpt><trkpt lat="59.4585170969" lon="30.2929864638"><ele>66.53</ele><time>2026-08-30T00:51:45Z</time></trkpt><trkpt lat="59.4585142471" lon="30.2929580491"><ele>66.70</ele><time>2026-08-30T00:52:14Z</time></trkpt><trkpt lat="59.4584664702" lon="30.2929458953"><ele>66.92</ele><time>2026-08-30T00:52:46Z</time></trkpt><trkpt lat="59.4585140795" lon="30.2929735556"><ele>66.86</ele><time>2026-08-30T00:53:19Z</time></trkpt><trkpt lat="59.4585526362" lon="30.2930208296"><ele>67.01</ele><time>2026-08-30T00:53:50Z</time></trkpt><trkpt lat="59.4585463498" lon="30.2930033952"><ele>67.07</ele><time>2026-08-30T00:54:18Z</time></trkpt><trkpt lat="59.4584760256" lon="30.2928529400"><ele>66.99</ele><time>2026-08-30T00:54:48Z</time></trkpt><trkpt lat="59.4585191924" lon="30.2929362562"><ele>67.04</ele><time>2026-08-30T00:55:18Z</time></trkpt><trkpt lat="59.4585321844" lon="30.2929031476"><ele>67.11</ele><time>2026-08-30T00:55:43Z</time></trkpt><trkpt lat="59.4585083798" lon="30.2929554507"><ele>67.31</ele><time>2026-08-30T00:56:15Z</time></trkpt><trkpt lat="59.4584518019" lon="30.2928826120"><ele>67.10</ele><time>2026-08-30T00:56:44Z</time></trkpt><trkpt lat="59.4585238863" lon="30.2929802611"><ele>67.02</ele><time>2026-08-30T00:57:22Z</time></trkpt><trkpt lat="59.4584845752" lon="30.2929584682"><ele>67.09</ele><time>2026-08-30T00:57:50Z</time></trkpt><trkpt lat="59.4585421588" lon="30.2930483222"><ele>66.97</ele><time>2026-08-30T00:58:19Z</time></trkpt><trkpt lat="59.4584960584" lon="30.2930418681"><ele>67.32</ele><time>2026-08-30T00:58:50Z</time></trkpt><trkpt lat="59.4584937114" lon="30.2930172253"><ele>67.39</ele><time>2026-08-30T00:59:20Z</time></trkpt><trkpt lat="59.4584894367" lon="30.2930433769"><ele>67.36</ele><time>2026-08-30T00:59:52Z</time></trkpt><trkpt lat="59.4585169293" lon="30.2930282056"><ele>67.52</ele><time>2026-08-30T01:00:23Z</time></trkpt><trkpt lat="59.4584725890" lon="30.2931074984"><ele>67.90</ele><time>2026-08-30T01:00:56Z</time></trkpt><trkpt lat="59.4585629459" lon="30.2931698598"><ele>68.17</ele><time>2026-08-30T01:01:27Z</time></trkpt><trkpt lat="59.4585065357" lon="30.2930703666"><ele>68.19</ele><time>2026-08-30T01:02:02Z</time></trkpt><trkpt lat="59.4585657958" lon="30.2931840252"><ele>68.59</ele><time>2026-08-30T01:02:38Z</time></trkpt><trkpt lat="59.4585326873" lon="30.2931587119"><ele>68.66</ele><time>2026-08-30T01:03:13Z</time></trkpt><trkpt lat="59.4585300051" lon="30.2930370905"><ele>68.79</ele><time>2026-08-30T01:03:44Z</time></trkpt><trkpt lat="59.4585614372" lon="30.2931010444"><ele>68.55</ele><time>2026-08-30T01:04:14Z</time></trkpt><trkpt lat="59.4585690647" lon="30.2930564526"><ele>68.79</ele><time>2026-08-30T01:04:48Z</time></trkpt><trkpt lat="59.4586141594" lon="30.2931162156"><ele>68.96</ele><time>2026-08-30T01:05:19Z</time></trkpt><trkpt lat="59.4585446734" lon="30.2930576261"><ele>69.21</ele><time>2026-08-30T01:05:52Z</time></trkpt><trkpt lat="59.4586201943" lon="30.2930752281"><ele>69.01</ele><time>2026-08-30T01:06:26Z</time></trkpt><trkpt lat="59.4585650414" lon="30.2930271998"><ele>69.13</ele><time>2026-08-30T01:06:58Z</time></trkpt><trkpt lat="59.4585598446" lon="30.2930525970"><ele>69.19</ele><time>2026-08-30T01:07:31Z</time></trkpt><trkpt lat="59.4585767761" lon="30.2930598892"><ele>69.43</ele><time>2026-08-30T01:08:02Z</time></trkpt><trkpt lat="59.4584730919" lon="30.2930663433"><ele>69.71</ele><time>2026-08-30T01:08:40Z</time></trkpt><trkpt lat="59.4584752712" lon="30.2930225059"><ele>69.75</ele><time>2026-08-30T01:09:37Z</time></trkpt><trkpt lat="59.4584859163" lon="30.2930303849"><ele>69.93</ele><time>2026-08-30T01:10:26Z</time></trkpt><trkpt lat="59.4584637880" lon="30.2930335701"><ele>70.39</ele><time>2026-08-30T01:11:16Z</time></trkpt><trkpt lat="59.4584730919" lon="30.2930326480"><ele>70.24</ele><time>2026-08-30T01:12:17Z</time></trkpt><trkpt lat="59.4584699906" lon="30.2930454724"><ele>70.19</ele><time>2026-08-30T01:13:11Z</time></trkpt><trkpt lat="59.4584839046" lon="30.2930659242"><ele>70.46</ele><time>2026-08-30T01:14:12Z</time></trkpt><trkpt lat="59.4584875088" lon="30.2930528484"><ele>70.63</ele><time>2026-08-30T01:15:13Z</time></trkpt><trkpt lat="59.4584895205" lon="30.2930339053"><ele>70.70</ele><time>2026-08-30T01:16:16Z</time></trkpt><trkpt lat="59.4584867544" lon="30.2930668462"><ele>70.85</ele><time>2026-08-30T01:17:03Z</time></trkpt><trkpt lat="59.4585010037" lon="30.2930222545"><ele>71.11</ele><time>2026-08-30T01:17:34Z</time></trkpt><trkpt lat="59.4584854133" lon="30.2930053230"><ele>71.14</ele><time>2026-08-30T01:18:15Z</time></trkpt><trkpt lat="59.4584900234" lon="30.2930416167"><ele>71.37</ele><time>2026-08-30T01:18:54Z</time></trkpt><trkpt lat="59.4585021771" lon="30.2930727974"><ele>71.20</ele><time>2026-08-30T01:19:30Z</time></trkpt><trkpt lat="59.4584643748" lon="30.2930426225"><ele>71.74</ele><time>2026-08-30T01:20:19Z</time></trkpt><trkpt lat="59.4584959745" lon="30.2930563688"><ele>71.73</ele><time>2026-08-30T01:21:09Z</time></trkpt><trkpt lat="59.4584986567" lon="30.2930580452"><ele>71.37</ele><time>2026-08-30T01:21:59Z</time></trkpt><trkpt lat="59.4584888499" lon="30.2930502500"><ele>71.71</ele><time>2026-08-30T01:22:56Z</time></trkpt><trkpt lat="59.4585191086" lon="30.2930508368"><ele>71.73</ele><time>2026-08-30T01:23:36Z</time></trkpt><trkpt lat="59.4585257303" lon="30.2930476516"><ele>71.81</ele><time>2026-08-30T01:24:05Z</time></trkpt><trkpt lat="59.4584938791" lon="30.2931094263"><ele>71.87</ele><time>2026-08-30T01:24:38Z</time></trkpt><trkpt lat="59.4584805518" lon="30.2930709533"><ele>72.05</ele><time>2026-08-30T01:25:31Z</time></trkpt><trkpt lat="59.4584818091" lon="30.2930466458"><ele>72.23</ele><time>2026-08-30T01:26:16Z</time></trkpt><trkpt lat="59.4584906101" lon="30.2930595540"><ele>72.25</ele><time>2026-08-30T01:27:00Z</time></trkpt><trkpt lat="59.4584980700" lon="30.2930130344"><ele>72.53</ele><time>2026-08-30T01:27:40Z</time></trkpt><trkpt lat="59.4585065357" lon="30.2930170577"><ele>72.67</ele><time>2026-08-30T01:28:09Z</time></trkpt><trkpt lat="59.4584860001" lon="30.2930512559"><ele>72.85</ele><time>2026-08-30T01:28:48Z</time></trkpt><trkpt lat="59.4584810548" lon="30.2930262778"><ele>73.22</ele><time>2026-08-30T01:29:40Z</time></trkpt><trkpt lat="59.4584842399" lon="30.2930354141"><ele>73.62</ele><time>2026-08-30T01:30:05Z</time></trkpt><trkpt lat="59.4584750198" lon="30.2930753119"><ele>73.91</ele><time>2026-08-30T01:30:31Z</time></trkpt><trkpt lat="59.4584720023" lon="30.2930880524"><ele>73.94</ele><time>2026-08-30T01:30:58Z</time></trkpt><trkpt lat="59.4584785402" lon="30.2931004576"><ele>73.98</ele><time>2026-08-30T01:31:27Z</time></trkpt><trkpt lat="59.4584860839" lon="30.2930856217"><ele>73.95</ele><time>2026-08-30T01:31:31Z</time></trkpt><trkpt lat="59.4585052785" lon="30.2931546886"><ele>73.71</ele><time>2026-08-30T01:31:54Z</time></trkpt><trkpt lat="59.4584792946" lon="30.2932499070"><ele>73.60</ele><time>2026-08-30T01:32:17Z</time></trkpt><trkpt lat="59.4584601000" lon="30.2932591271"><ele>73.76</ele><time>2026-08-30T01:32:38Z</time></trkpt><trkpt lat="59.4584020134" lon="30.2932866197"><ele>73.85</ele><time>2026-08-30T01:32:57Z</time></trkpt><trkpt lat="59.4583357126" lon="30.2932333946"><ele>73.66</ele><time>2026-08-30T01:33:14Z</time></trkpt><trkpt lat="59.4582836609" lon="30.2932399325"><ele>74.31</ele><time>2026-08-30T01:33:32Z</time></trkpt><trkpt lat="59.4582400750" lon="30.2932677604"><ele>74.27</ele><time>2026-08-30T01:33:54Z</time></trkpt><trkpt lat="59.4582042843" lon="30.2931955922"><ele>74.14</ele><time>2026-08-30T01:34:15Z</time></trkpt><trkpt lat="59.4581556693" lon="30.2931110188"><ele>74.46</ele><time>2026-08-30T01:34:32Z</time></trkpt><trkpt lat="59.4581131730" lon="30.2930823527"><ele>73.80</ele><time>2026-08-30T01:34:49Z</time></trkpt><trkpt lat="59.4580332935" lon="30.2931914013"><ele>73.79</ele><time>2026-08-30T01:35:06Z</time></trkpt><trkpt lat="59.4579666574" lon="30.2932747174"><ele>73.61</ele><time>2026-08-30T01:35:23Z</time></trkpt><trkpt lat="59.4578990992" lon="30.2932457998"><ele>73.62</ele><time>2026-08-30T01:35:39Z</time></trkpt><trkpt lat="59.4578858558" lon="30.2931878809"><ele>73.70</ele><time>2026-08-30T01:35:54Z</time></trkpt><trkpt lat="59.4578965008" lon="30.2929226775"><ele>73.01</ele><time>2026-08-30T01:36:12Z</time></trkpt><trkpt lat="59.4578763004" lon="30.2926475834"><ele>73.20</ele><time>2026-08-30T01:36:29Z</time></trkpt><trkpt lat="59.4578625541" lon="30.2924099565"><ele>73.24</ele><time>2026-08-30T01:36:46Z</time></trkpt><trkpt lat="59.4578574412" lon="30.2923287358"><ele>73.05</ele><time>2026-08-30T01:37:07Z</time></trkpt><trkpt lat="59.4578562677" lon="30.2920761891"><ele>72.87</ele><time>2026-08-30T01:37:26Z</time></trkpt><trkpt lat="59.4578596205" lon="30.2917441819"><ele>72.93</ele><time>2026-08-30T01:37:49Z</time></trkpt><trkpt lat="59.4578677509" lon="30.2913446166"><ele>72.78</ele><time>2026-08-30T01:38:09Z</time></trkpt><trkpt lat="59.4578457903" lon="30.2911197301"><ele>72.67</ele><time>2026-08-30T01:38:18Z</time></trkpt><trkpt lat="59.4578535017" lon="30.2909531817"><ele>72.36</ele><time>2026-08-30T01:38:26Z</time></trkpt><trkpt lat="59.4578099996" lon="30.2906096913"><ele>72.29</ele><time>2026-08-30T01:38:44Z</time></trkpt><trkpt lat="59.4577968400" lon="30.2902808692"><ele>72.49</ele><time>2026-08-30T01:39:00Z</time></trkpt><trkpt lat="59.4577712752" lon="30.2900921926"><ele>72.02</ele><time>2026-08-30T01:39:15Z</time></trkpt><trkpt lat="59.4577838480" lon="30.2897648793"><ele>72.05</ele><time>2026-08-30T01:39:36Z</time></trkpt><trkpt lat="59.4576866180" lon="30.2897196170"><ele>72.05</ele><time>2026-08-30T01:39:53Z</time></trkpt><trkpt lat="59.4576116838" lon="30.2897458524"><ele>71.17</ele><time>2026-08-30T01:40:08Z</time></trkpt><trkpt lat="59.4575186446" lon="30.2897944674"><ele>70.84</ele><time>2026-08-30T01:40:28Z</time></trkpt><trkpt lat="59.4574316405" lon="30.2898708265"><ele>71.36</ele><time>2026-08-30T01:40:44Z</time></trkpt><trkpt lat="59.4573719613" lon="30.2899311762"><ele>71.22</ele><time>2026-08-30T01:40:58Z</time></trkpt><trkpt lat="59.4573113602" lon="30.2899558190"><ele>71.24</ele><time>2026-08-30T01:41:11Z</time></trkpt><trkpt lat="59.4572601467" lon="30.2899336908"><ele>70.89</ele><time>2026-08-30T01:41:24Z</time></trkpt><trkpt lat="59.4571952708" lon="30.2900545578"><ele>71.28</ele><time>2026-08-30T01:41:38Z</time></trkpt><trkpt lat="59.4571734779" lon="30.2900594193"><ele>71.56</ele><time>2026-08-30T01:41:41Z</time></trkpt><trkpt lat="59.4571314007" lon="30.2900102176"><ele>71.32</ele><time>2026-08-30T01:41:46Z</time></trkpt><trkpt lat="59.4571203366" lon="30.2898470219"><ele>71.01</ele><time>2026-08-30T01:41:58Z</time></trkpt><trkpt lat="59.4571234379" lon="30.2897958923"><ele>71.19</ele><time>2026-08-30T01:42:01Z</time></trkpt><trkpt lat="59.4571223482" lon="30.2896776237"><ele>70.91</ele><time>2026-08-30T01:42:06Z</time></trkpt><trkpt lat="59.4571243599" lon="30.2895720955"><ele>70.80</ele><time>2026-08-30T01:42:14Z</time></trkpt><trkpt lat="59.4571175706" lon="30.2892864402"><ele>70.73</ele><time>2026-08-30T01:42:26Z</time></trkpt><trkpt lat="59.4571002200" lon="30.2890621405"><ele>70.70</ele><time>2026-08-30T01:42:35Z</time></trkpt><trkpt lat="59.4570818637" lon="30.2887044009"><ele>70.92</ele><time>2026-08-30T01:42:51Z</time></trkpt><trkpt lat="59.4570741523" lon="30.2885365952"><ele>70.77</ele><time>2026-08-30T01:43:03Z</time></trkpt><trkpt lat="59.4570624176" lon="30.2881635167"><ele>71.05</ele><time>2026-08-30T01:43:21Z</time></trkpt><trkpt lat="59.4570541196" lon="30.2877808828"><ele>71.02</ele><time>2026-08-30T01:43:38Z</time></trkpt><trkpt lat="59.4570461567" lon="30.2873494662"><ele>70.79</ele><time>2026-08-30T01:43:57Z</time></trkpt><trkpt lat="59.4570197538" lon="30.2869841829"><ele>70.61</ele><time>2026-08-30T01:44:11Z</time></trkpt><trkpt lat="59.4570098631" lon="30.2869433630"><ele>70.64</ele><time>2026-08-30T01:44:13Z</time></trkpt><trkpt lat="59.4569966197" lon="30.2867613919"><ele>70.57</ele><time>2026-08-30T01:44:21Z</time></trkpt><trkpt lat="59.4569885731" lon="30.2866640780"><ele>70.58</ele><time>2026-08-30T01:44:25Z</time></trkpt><trkpt lat="59.4569697976" lon="30.2865929157"><ele>70.60</ele><time>2026-08-30T01:44:40Z</time></trkpt><trkpt lat="59.4569648523" lon="30.2864702884"><ele>70.73</ele><time>2026-08-30T01:44:45Z</time></trkpt><trkpt lat="59.4569646847" lon="30.2864179015"><ele>70.61</ele><time>2026-08-30T01:44:47Z</time></trkpt><trkpt lat="59.4569586497" lon="30.2863140497"><ele>70.81</ele><time>2026-08-30T01:44:51Z</time></trkpt><trkpt lat="59.4569634274" lon="30.2861231938"><ele>70.59</ele><time>2026-08-30T01:44:59Z</time></trkpt><trkpt lat="59.4569617510" lon="30.2858294919"><ele>70.73</ele><time>2026-08-30T01:45:15Z</time></trkpt><trkpt lat="59.4569300674" lon="30.2857094631"><ele>70.62</ele><time>2026-08-30T01:45:46Z</time></trkpt><trkpt lat="59.4569414668" lon="30.2857127320"><ele>70.65</ele><time>2026-08-30T01:46:03Z</time></trkpt><trkpt lat="59.4569501840" lon="30.2857207786"><ele>70.26</ele><time>2026-08-30T01:46:23Z</time></trkpt></trkseg></trk></gpx>